<?xml version="1.0" encoding="UTF-8" standalone="no" ?>
<gpx xmlns="http://www.topografix.com/GPX/1/1" xmlns:xsi="http://www.w3.org/2001/XMLSchema-instance" xsi:schemaLocation="http://www.topografix.com/GPX/1/1 http://www.topografix.com/GPX/1/1/gpx.xsd" version="1.1" creator="VisuGPX - https://www.visugpx.com">
  <metadata>
    <name>414 noidant vieux moulin</name>
    <desc><![CDATA[philman 52
]]></desc>
  </metadata>
  <trk>
    <name><![CDATA[2021-04-14 16:25:42]]></name>
    <extensions>
      <line xmlns="http://www.topografix.com/GPX/gpx_style/0/2">
        <color>0000FF</color>
        <width>4</width>
      </line>
    </extensions>
    <trkseg>
      <trkpt lat="47.82991" lon="5.25491">
        <ele>389.67</ele>
        <time>2021-04-14T11:56:01Z</time>
      </trkpt>
      <trkpt lat="47.83005" lon="5.25488">
        <ele>389.81</ele>
        <time>2021-04-14T11:56:17Z</time>
      </trkpt>
      <trkpt lat="47.83014" lon="5.25485">
        <ele>389.34</ele>
        <time>2021-04-14T11:56:26Z</time>
      </trkpt>
      <trkpt lat="47.83029" lon="5.25498">
        <ele>389.21</ele>
        <time>2021-04-14T11:56:42Z</time>
      </trkpt>
      <trkpt lat="47.83038" lon="5.25508">
        <ele>389.79</ele>
        <time>2021-04-14T11:56:51Z</time>
      </trkpt>
      <trkpt lat="47.83041" lon="5.25515">
        <ele>390.02</ele>
        <time>2021-04-14T11:56:56Z</time>
      </trkpt>
      <trkpt lat="47.83043" lon="5.25522">
        <ele>390.15</ele>
        <time>2021-04-14T11:57:00Z</time>
      </trkpt>
      <trkpt lat="47.83052" lon="5.25547">
        <ele>391.61</ele>
        <time>2021-04-14T11:57:15Z</time>
      </trkpt>
      <trkpt lat="47.83066" lon="5.25556">
        <ele>393.83</ele>
        <time>2021-04-14T11:57:33Z</time>
      </trkpt>
      <trkpt lat="47.83076" lon="5.25558">
        <ele>395.57</ele>
        <time>2021-04-14T11:57:43Z</time>
      </trkpt>
      <trkpt lat="47.83081" lon="5.25559">
        <ele>395.94</ele>
        <time>2021-04-14T11:57:46Z</time>
      </trkpt>
      <trkpt lat="47.83099" lon="5.2556">
        <ele>397.69</ele>
        <time>2021-04-14T11:57:58Z</time>
      </trkpt>
      <trkpt lat="47.83116" lon="5.2556">
        <ele>399.76</ele>
        <time>2021-04-14T11:58:12Z</time>
      </trkpt>
      <trkpt lat="47.83134" lon="5.25561">
        <ele>401.27</ele>
        <time>2021-04-14T11:58:27Z</time>
      </trkpt>
      <trkpt lat="47.83148" lon="5.25563">
        <ele>402.12</ele>
        <time>2021-04-14T11:58:39Z</time>
      </trkpt>
      <trkpt lat="47.83161" lon="5.25559">
        <ele>403.56</ele>
        <time>2021-04-14T11:58:52Z</time>
      </trkpt>
      <trkpt lat="47.83164" lon="5.25558">
        <ele>403.98</ele>
        <time>2021-04-14T11:58:55Z</time>
      </trkpt>
      <trkpt lat="47.83179" lon="5.25552">
        <ele>406.16</ele>
        <time>2021-04-14T11:59:11Z</time>
      </trkpt>
      <trkpt lat="47.83184" lon="5.25551">
        <ele>406.79</ele>
        <time>2021-04-14T11:59:16Z</time>
      </trkpt>
      <trkpt lat="47.83203" lon="5.25555">
        <ele>407.96</ele>
        <time>2021-04-14T11:59:31Z</time>
      </trkpt>
      <trkpt lat="47.83223" lon="5.25555">
        <ele>409.36</ele>
        <time>2021-04-14T11:59:50Z</time>
      </trkpt>
      <trkpt lat="47.83235" lon="5.25555">
        <ele>410.67</ele>
        <time>2021-04-14T12:00:00Z</time>
      </trkpt>
      <trkpt lat="47.83241" lon="5.25557">
        <ele>411.43</ele>
        <time>2021-04-14T12:00:04Z</time>
      </trkpt>
      <trkpt lat="47.83256" lon="5.25557">
        <ele>412.78</ele>
        <time>2021-04-14T12:00:16Z</time>
      </trkpt>
      <trkpt lat="47.8326" lon="5.25556">
        <ele>413.2</ele>
        <time>2021-04-14T12:00:20Z</time>
      </trkpt>
      <trkpt lat="47.8327" lon="5.25558">
        <ele>415.15</ele>
        <time>2021-04-14T12:00:34Z</time>
      </trkpt>
      <trkpt lat="47.83271" lon="5.25559">
        <ele>415.46</ele>
        <time>2021-04-14T12:00:36Z</time>
      </trkpt>
      <trkpt lat="47.83285" lon="5.25561">
        <ele>416.62</ele>
        <time>2021-04-14T12:00:48Z</time>
      </trkpt>
      <trkpt lat="47.83302" lon="5.25562">
        <ele>419.23</ele>
        <time>2021-04-14T12:01:05Z</time>
      </trkpt>
      <trkpt lat="47.83304" lon="5.25563">
        <ele>419.5</ele>
        <time>2021-04-14T12:01:07Z</time>
      </trkpt>
      <trkpt lat="47.83318" lon="5.25568">
        <ele>421.48</ele>
        <time>2021-04-14T12:01:22Z</time>
      </trkpt>
      <trkpt lat="47.83324" lon="5.25572">
        <ele>422.24</ele>
        <time>2021-04-14T12:01:30Z</time>
      </trkpt>
      <trkpt lat="47.83335" lon="5.25577">
        <ele>423.17</ele>
        <time>2021-04-14T12:01:44Z</time>
      </trkpt>
      <trkpt lat="47.83338" lon="5.25579">
        <ele>423.85</ele>
        <time>2021-04-14T12:01:48Z</time>
      </trkpt>
      <trkpt lat="47.83342" lon="5.25581">
        <ele>424.11</ele>
        <time>2021-04-14T12:01:52Z</time>
      </trkpt>
      <trkpt lat="47.83343" lon="5.25582">
        <ele>424.34</ele>
        <time>2021-04-14T12:01:54Z</time>
      </trkpt>
      <trkpt lat="47.8335" lon="5.25587">
        <ele>424.81</ele>
        <time>2021-04-14T12:02:01Z</time>
      </trkpt>
      <trkpt lat="47.83362" lon="5.25594">
        <ele>425.54</ele>
        <time>2021-04-14T12:02:09Z</time>
      </trkpt>
      <trkpt lat="47.83372" lon="5.25596">
        <ele>426.41</ele>
        <time>2021-04-14T12:02:18Z</time>
      </trkpt>
      <trkpt lat="47.83379" lon="5.25594">
        <ele>426.91</ele>
        <time>2021-04-14T12:02:24Z</time>
      </trkpt>
      <trkpt lat="47.83391" lon="5.25593">
        <ele>426.88</ele>
        <time>2021-04-14T12:02:36Z</time>
      </trkpt>
      <trkpt lat="47.83398" lon="5.25591">
        <ele>426.69</ele>
        <time>2021-04-14T12:02:46Z</time>
      </trkpt>
      <trkpt lat="47.834" lon="5.25589">
        <ele>426.68</ele>
        <time>2021-04-14T12:02:48Z</time>
      </trkpt>
      <trkpt lat="47.83406" lon="5.25585">
        <ele>426.61</ele>
        <time>2021-04-14T12:02:53Z</time>
      </trkpt>
      <trkpt lat="47.83415" lon="5.25579">
        <ele>426.02</ele>
        <time>2021-04-14T12:03:03Z</time>
      </trkpt>
      <trkpt lat="47.83417" lon="5.25578">
        <ele>425.86</ele>
        <time>2021-04-14T12:03:05Z</time>
      </trkpt>
      <trkpt lat="47.83429" lon="5.25572">
        <ele>425.61</ele>
        <time>2021-04-14T12:03:20Z</time>
      </trkpt>
      <trkpt lat="47.83432" lon="5.25573">
        <ele>425.59</ele>
        <time>2021-04-14T12:03:24Z</time>
      </trkpt>
      <trkpt lat="47.83439" lon="5.25572">
        <ele>425.13</ele>
        <time>2021-04-14T12:03:33Z</time>
      </trkpt>
      <trkpt lat="47.83442" lon="5.25571">
        <ele>425.17</ele>
        <time>2021-04-14T12:03:36Z</time>
      </trkpt>
      <trkpt lat="47.83456" lon="5.25567">
        <ele>425.33</ele>
        <time>2021-04-14T12:03:48Z</time>
      </trkpt>
      <trkpt lat="47.83466" lon="5.25566">
        <ele>425.26</ele>
        <time>2021-04-14T12:03:57Z</time>
      </trkpt>
      <trkpt lat="47.83471" lon="5.25563">
        <ele>425.5</ele>
        <time>2021-04-14T12:04:02Z</time>
      </trkpt>
      <trkpt lat="47.83481" lon="5.25561">
        <ele>426.05</ele>
        <time>2021-04-14T12:04:10Z</time>
      </trkpt>
      <trkpt lat="47.83493" lon="5.25561">
        <ele>426.52</ele>
        <time>2021-04-14T12:04:21Z</time>
      </trkpt>
      <trkpt lat="47.83504" lon="5.25559">
        <ele>427</ele>
        <time>2021-04-14T12:04:31Z</time>
      </trkpt>
      <trkpt lat="47.83512" lon="5.25557">
        <ele>427.17</ele>
        <time>2021-04-14T12:04:37Z</time>
      </trkpt>
      <trkpt lat="47.83514" lon="5.25556">
        <ele>427.3</ele>
        <time>2021-04-14T12:04:39Z</time>
      </trkpt>
      <trkpt lat="47.83522" lon="5.25554">
        <ele>427.43</ele>
        <time>2021-04-14T12:04:47Z</time>
      </trkpt>
      <trkpt lat="47.83527" lon="5.25552">
        <ele>427.39</ele>
        <time>2021-04-14T12:04:51Z</time>
      </trkpt>
      <trkpt lat="47.83531" lon="5.25551">
        <ele>427.38</ele>
        <time>2021-04-14T12:04:54Z</time>
      </trkpt>
      <trkpt lat="47.83534" lon="5.2555">
        <ele>427.38</ele>
        <time>2021-04-14T12:04:56Z</time>
      </trkpt>
      <trkpt lat="47.83536" lon="5.25549">
        <ele>427.39</ele>
        <time>2021-04-14T12:04:58Z</time>
      </trkpt>
      <trkpt lat="47.8354" lon="5.25548">
        <ele>427.39</ele>
        <time>2021-04-14T12:05:01Z</time>
      </trkpt>
      <trkpt lat="47.83548" lon="5.25541">
        <ele>427.58</ele>
        <time>2021-04-14T12:05:10Z</time>
      </trkpt>
      <trkpt lat="47.83559" lon="5.25535">
        <ele>428.19</ele>
        <time>2021-04-14T12:05:19Z</time>
      </trkpt>
      <trkpt lat="47.8357" lon="5.25527">
        <ele>429.16</ele>
        <time>2021-04-14T12:05:28Z</time>
      </trkpt>
      <trkpt lat="47.83579" lon="5.25516">
        <ele>430.28</ele>
        <time>2021-04-14T12:05:38Z</time>
      </trkpt>
      <trkpt lat="47.8359" lon="5.25511">
        <ele>430.25</ele>
        <time>2021-04-14T12:05:46Z</time>
      </trkpt>
      <trkpt lat="47.83595" lon="5.25505">
        <ele>430.38</ele>
        <time>2021-04-14T12:05:52Z</time>
      </trkpt>
      <trkpt lat="47.83597" lon="5.25504">
        <ele>430.35</ele>
        <time>2021-04-14T12:05:54Z</time>
      </trkpt>
      <trkpt lat="47.83606" lon="5.25496">
        <ele>430.31</ele>
        <time>2021-04-14T12:06:02Z</time>
      </trkpt>
      <trkpt lat="47.83607" lon="5.25494">
        <ele>430.32</ele>
        <time>2021-04-14T12:06:04Z</time>
      </trkpt>
      <trkpt lat="47.8362" lon="5.25484">
        <ele>430.48</ele>
        <time>2021-04-14T12:06:15Z</time>
      </trkpt>
      <trkpt lat="47.83623" lon="5.25483">
        <ele>430.6</ele>
        <time>2021-04-14T12:06:17Z</time>
      </trkpt>
      <trkpt lat="47.83638" lon="5.25478">
        <ele>431.08</ele>
        <time>2021-04-14T12:06:26Z</time>
      </trkpt>
      <trkpt lat="47.83648" lon="5.25476">
        <ele>431.57</ele>
        <time>2021-04-14T12:06:34Z</time>
      </trkpt>
      <trkpt lat="47.83653" lon="5.25475">
        <ele>431.66</ele>
        <time>2021-04-14T12:06:37Z</time>
      </trkpt>
      <trkpt lat="47.83656" lon="5.25474">
        <ele>431.83</ele>
        <time>2021-04-14T12:06:39Z</time>
      </trkpt>
      <trkpt lat="47.83662" lon="5.25473">
        <ele>432.24</ele>
        <time>2021-04-14T12:06:43Z</time>
      </trkpt>
      <trkpt lat="47.83675" lon="5.25471">
        <ele>432.56</ele>
        <time>2021-04-14T12:06:54Z</time>
      </trkpt>
      <trkpt lat="47.83676" lon="5.2547">
        <ele>432.59</ele>
        <time>2021-04-14T12:06:55Z</time>
      </trkpt>
      <trkpt lat="47.83678" lon="5.25469">
        <ele>432.66</ele>
        <time>2021-04-14T12:06:57Z</time>
      </trkpt>
      <trkpt lat="47.8368" lon="5.25471">
        <ele>432.75</ele>
        <time>2021-04-14T12:06:59Z</time>
      </trkpt>
      <trkpt lat="47.8369" lon="5.2547">
        <ele>432.83</ele>
        <time>2021-04-14T12:07:06Z</time>
      </trkpt>
      <trkpt lat="47.83704" lon="5.25469">
        <ele>432.6</ele>
        <time>2021-04-14T12:07:14Z</time>
      </trkpt>
      <trkpt lat="47.83709" lon="5.25469">
        <ele>432.59</ele>
        <time>2021-04-14T12:07:17Z</time>
      </trkpt>
      <trkpt lat="47.8371" lon="5.25469">
        <ele>432.63</ele>
        <time>2021-04-14T12:07:18Z</time>
      </trkpt>
      <trkpt lat="47.83712" lon="5.25469">
        <ele>432.84</ele>
        <time>2021-04-14T12:07:20Z</time>
      </trkpt>
      <trkpt lat="47.83717" lon="5.25471">
        <ele>432.94</ele>
        <time>2021-04-14T12:07:26Z</time>
      </trkpt>
      <trkpt lat="47.83719" lon="5.25471">
        <ele>432.86</ele>
        <time>2021-04-14T12:07:27Z</time>
      </trkpt>
      <trkpt lat="47.8372" lon="5.2547">
        <ele>432.76</ele>
        <time>2021-04-14T12:07:28Z</time>
      </trkpt>
      <trkpt lat="47.83723" lon="5.25468">
        <ele>432.67</ele>
        <time>2021-04-14T12:07:31Z</time>
      </trkpt>
      <trkpt lat="47.83726" lon="5.25468">
        <ele>432.71</ele>
        <time>2021-04-14T12:07:33Z</time>
      </trkpt>
      <trkpt lat="47.83732" lon="5.25466">
        <ele>432.64</ele>
        <time>2021-04-14T12:07:38Z</time>
      </trkpt>
      <trkpt lat="47.83739" lon="5.2546">
        <ele>432.58</ele>
        <time>2021-04-14T12:07:48Z</time>
      </trkpt>
      <trkpt lat="47.8375" lon="5.25459">
        <ele>432.44</ele>
        <time>2021-04-14T12:07:58Z</time>
      </trkpt>
      <trkpt lat="47.83753" lon="5.25458">
        <ele>432.46</ele>
        <time>2021-04-14T12:08:00Z</time>
      </trkpt>
      <trkpt lat="47.8376" lon="5.25456">
        <ele>432.11</ele>
        <time>2021-04-14T12:08:06Z</time>
      </trkpt>
      <trkpt lat="47.83762" lon="5.25456">
        <ele>432.04</ele>
        <time>2021-04-14T12:08:08Z</time>
      </trkpt>
      <trkpt lat="47.83765" lon="5.25454">
        <ele>431.97</ele>
        <time>2021-04-14T12:08:10Z</time>
      </trkpt>
      <trkpt lat="47.83766" lon="5.25453">
        <ele>431.99</ele>
        <time>2021-04-14T12:08:11Z</time>
      </trkpt>
      <trkpt lat="47.83768" lon="5.25452">
        <ele>431.84</ele>
        <time>2021-04-14T12:08:13Z</time>
      </trkpt>
      <trkpt lat="47.8377" lon="5.25451">
        <ele>431.76</ele>
        <time>2021-04-14T12:08:14Z</time>
      </trkpt>
      <trkpt lat="47.83772" lon="5.25451">
        <ele>431.7</ele>
        <time>2021-04-14T12:08:15Z</time>
      </trkpt>
      <trkpt lat="47.83777" lon="5.2545">
        <ele>431.41</ele>
        <time>2021-04-14T12:08:19Z</time>
      </trkpt>
      <trkpt lat="47.83779" lon="5.25449">
        <ele>431.29</ele>
        <time>2021-04-14T12:08:21Z</time>
      </trkpt>
      <trkpt lat="47.83786" lon="5.25445">
        <ele>431.08</ele>
        <time>2021-04-14T12:08:27Z</time>
      </trkpt>
      <trkpt lat="47.8379" lon="5.25443">
        <ele>430.78</ele>
        <time>2021-04-14T12:08:32Z</time>
      </trkpt>
      <trkpt lat="47.83791" lon="5.25443">
        <ele>430.63</ele>
        <time>2021-04-14T12:08:33Z</time>
      </trkpt>
      <trkpt lat="47.83795" lon="5.25438">
        <ele>430.14</ele>
        <time>2021-04-14T12:08:39Z</time>
      </trkpt>
      <trkpt lat="47.83803" lon="5.25433">
        <ele>429.82</ele>
        <time>2021-04-14T12:08:46Z</time>
      </trkpt>
      <trkpt lat="47.83807" lon="5.25431">
        <ele>429.67</ele>
        <time>2021-04-14T12:08:49Z</time>
      </trkpt>
      <trkpt lat="47.83808" lon="5.2543">
        <ele>429.62</ele>
        <time>2021-04-14T12:08:50Z</time>
      </trkpt>
      <trkpt lat="47.83809" lon="5.25429">
        <ele>429.59</ele>
        <time>2021-04-14T12:08:51Z</time>
      </trkpt>
      <trkpt lat="47.8382" lon="5.25424">
        <ele>429.03</ele>
        <time>2021-04-14T12:08:58Z</time>
      </trkpt>
      <trkpt lat="47.83829" lon="5.25423">
        <ele>428.23</ele>
        <time>2021-04-14T12:09:04Z</time>
      </trkpt>
      <trkpt lat="47.83833" lon="5.25422">
        <ele>428.12</ele>
        <time>2021-04-14T12:09:07Z</time>
      </trkpt>
      <trkpt lat="47.83837" lon="5.25421">
        <ele>427.97</ele>
        <time>2021-04-14T12:09:10Z</time>
      </trkpt>
      <trkpt lat="47.8384" lon="5.2542">
        <ele>427.71</ele>
        <time>2021-04-14T12:09:12Z</time>
      </trkpt>
      <trkpt lat="47.83842" lon="5.25419">
        <ele>427.54</ele>
        <time>2021-04-14T12:09:14Z</time>
      </trkpt>
      <trkpt lat="47.83843" lon="5.25418">
        <ele>427.47</ele>
        <time>2021-04-14T12:09:15Z</time>
      </trkpt>
      <trkpt lat="47.83845" lon="5.25416">
        <ele>427.39</ele>
        <time>2021-04-14T12:09:17Z</time>
      </trkpt>
      <trkpt lat="47.83847" lon="5.25414">
        <ele>427.05</ele>
        <time>2021-04-14T12:09:19Z</time>
      </trkpt>
      <trkpt lat="47.83849" lon="5.25412">
        <ele>426.7</ele>
        <time>2021-04-14T12:09:21Z</time>
      </trkpt>
      <trkpt lat="47.8387" lon="5.25394">
        <ele>424.81</ele>
        <time>2021-04-14T12:09:38Z</time>
      </trkpt>
      <trkpt lat="47.83877" lon="5.25392">
        <ele>424.58</ele>
        <time>2021-04-14T12:09:42Z</time>
      </trkpt>
      <trkpt lat="47.83895" lon="5.25384">
        <ele>423.38</ele>
        <time>2021-04-14T12:10:01Z</time>
      </trkpt>
      <trkpt lat="47.83907" lon="5.25385">
        <ele>423.54</ele>
        <time>2021-04-14T12:10:13Z</time>
      </trkpt>
      <trkpt lat="47.8391" lon="5.25386">
        <ele>423.8</ele>
        <time>2021-04-14T12:10:17Z</time>
      </trkpt>
      <trkpt lat="47.83915" lon="5.25387">
        <ele>424.33</ele>
        <time>2021-04-14T12:10:22Z</time>
      </trkpt>
      <trkpt lat="47.83928" lon="5.25389">
        <ele>425.13</ele>
        <time>2021-04-14T12:10:33Z</time>
      </trkpt>
      <trkpt lat="47.8393" lon="5.2539">
        <ele>425.12</ele>
        <time>2021-04-14T12:10:35Z</time>
      </trkpt>
      <trkpt lat="47.83944" lon="5.25387">
        <ele>425.06</ele>
        <time>2021-04-14T12:10:47Z</time>
      </trkpt>
      <trkpt lat="47.83946" lon="5.25386">
        <ele>425.13</ele>
        <time>2021-04-14T12:10:49Z</time>
      </trkpt>
      <trkpt lat="47.83951" lon="5.25383">
        <ele>425.21</ele>
        <time>2021-04-14T12:10:52Z</time>
      </trkpt>
      <trkpt lat="47.83954" lon="5.25381">
        <ele>425.36</ele>
        <time>2021-04-14T12:10:55Z</time>
      </trkpt>
      <trkpt lat="47.83962" lon="5.25377">
        <ele>425.72</ele>
        <time>2021-04-14T12:11:03Z</time>
      </trkpt>
      <trkpt lat="47.83966" lon="5.25376">
        <ele>425.63</ele>
        <time>2021-04-14T12:11:07Z</time>
      </trkpt>
      <trkpt lat="47.83987" lon="5.25367">
        <ele>425.87</ele>
        <time>2021-04-14T12:11:26Z</time>
      </trkpt>
      <trkpt lat="47.84003" lon="5.25362">
        <ele>426.34</ele>
        <time>2021-04-14T12:11:39Z</time>
      </trkpt>
      <trkpt lat="47.84018" lon="5.25358">
        <ele>426.72</ele>
        <time>2021-04-14T12:11:50Z</time>
      </trkpt>
      <trkpt lat="47.84026" lon="5.25352">
        <ele>426.61</ele>
        <time>2021-04-14T12:11:56Z</time>
      </trkpt>
      <trkpt lat="47.84041" lon="5.25341">
        <ele>426.61</ele>
        <time>2021-04-14T12:12:07Z</time>
      </trkpt>
      <trkpt lat="47.84043" lon="5.25339">
        <ele>426.44</ele>
        <time>2021-04-14T12:12:09Z</time>
      </trkpt>
      <trkpt lat="47.84051" lon="5.25334">
        <ele>426.24</ele>
        <time>2021-04-14T12:12:13Z</time>
      </trkpt>
      <trkpt lat="47.84064" lon="5.2533">
        <ele>426.43</ele>
        <time>2021-04-14T12:12:20Z</time>
      </trkpt>
      <trkpt lat="47.84067" lon="5.25328">
        <ele>426.41</ele>
        <time>2021-04-14T12:12:23Z</time>
      </trkpt>
      <trkpt lat="47.84074" lon="5.25325">
        <ele>426.4</ele>
        <time>2021-04-14T12:12:28Z</time>
      </trkpt>
      <trkpt lat="47.84079" lon="5.25325">
        <ele>426.35</ele>
        <time>2021-04-14T12:12:31Z</time>
      </trkpt>
      <trkpt lat="47.84086" lon="5.25325">
        <ele>426.21</ele>
        <time>2021-04-14T12:12:36Z</time>
      </trkpt>
      <trkpt lat="47.84092" lon="5.25323">
        <ele>426.17</ele>
        <time>2021-04-14T12:12:42Z</time>
      </trkpt>
      <trkpt lat="47.84095" lon="5.25319">
        <ele>426.04</ele>
        <time>2021-04-14T12:12:45Z</time>
      </trkpt>
      <trkpt lat="47.84102" lon="5.25312">
        <ele>425.7</ele>
        <time>2021-04-14T12:12:52Z</time>
      </trkpt>
      <trkpt lat="47.84125" lon="5.25324">
        <ele>425.42</ele>
        <time>2021-04-14T12:13:11Z</time>
      </trkpt>
      <trkpt lat="47.84138" lon="5.25332">
        <ele>425.04</ele>
        <time>2021-04-14T12:13:21Z</time>
      </trkpt>
      <trkpt lat="47.84148" lon="5.25341">
        <ele>424.98</ele>
        <time>2021-04-14T12:13:30Z</time>
      </trkpt>
      <trkpt lat="47.84163" lon="5.25354">
        <ele>424.38</ele>
        <time>2021-04-14T12:13:42Z</time>
      </trkpt>
      <trkpt lat="47.84174" lon="5.25371">
        <ele>423.78</ele>
        <time>2021-04-14T12:13:56Z</time>
      </trkpt>
      <trkpt lat="47.84184" lon="5.25381">
        <ele>423.59</ele>
        <time>2021-04-14T12:14:05Z</time>
      </trkpt>
      <trkpt lat="47.84189" lon="5.25388">
        <ele>423.67</ele>
        <time>2021-04-14T12:14:10Z</time>
      </trkpt>
      <trkpt lat="47.842" lon="5.25405">
        <ele>423.49</ele>
        <time>2021-04-14T12:14:21Z</time>
      </trkpt>
      <trkpt lat="47.84206" lon="5.25413">
        <ele>423.2</ele>
        <time>2021-04-14T12:14:26Z</time>
      </trkpt>
      <trkpt lat="47.84215" lon="5.25424">
        <ele>423.2</ele>
        <time>2021-04-14T12:14:35Z</time>
      </trkpt>
      <trkpt lat="47.84219" lon="5.25431">
        <ele>423.72</ele>
        <time>2021-04-14T12:14:42Z</time>
      </trkpt>
      <trkpt lat="47.84238" lon="5.25456">
        <ele>424.19</ele>
        <time>2021-04-14T12:15:01Z</time>
      </trkpt>
      <trkpt lat="47.8427" lon="5.2548">
        <ele>424.83</ele>
        <time>2021-04-14T12:15:18Z</time>
      </trkpt>
      <trkpt lat="47.84273" lon="5.25483">
        <ele>424.7</ele>
        <time>2021-04-14T12:15:24Z</time>
      </trkpt>
      <trkpt lat="47.84318" lon="5.25518">
        <ele>424.69</ele>
        <time>2021-04-14T12:16:14Z</time>
      </trkpt>
      <trkpt lat="47.84341" lon="5.25542">
        <ele>424.11</ele>
        <time>2021-04-14T12:16:31Z</time>
      </trkpt>
      <trkpt lat="47.84351" lon="5.25554">
        <ele>423.94</ele>
        <time>2021-04-14T12:16:42Z</time>
      </trkpt>
      <trkpt lat="47.84355" lon="5.25558">
        <ele>423.45</ele>
        <time>2021-04-14T12:16:47Z</time>
      </trkpt>
      <trkpt lat="47.84373" lon="5.25565">
        <ele>422.75</ele>
        <time>2021-04-14T12:16:59Z</time>
      </trkpt>
      <trkpt lat="47.844" lon="5.25576">
        <ele>421.82</ele>
        <time>2021-04-14T12:17:11Z</time>
      </trkpt>
      <trkpt lat="47.84406" lon="5.25579">
        <ele>421.78</ele>
        <time>2021-04-14T12:17:15Z</time>
      </trkpt>
      <trkpt lat="47.84416" lon="5.25583">
        <ele>421.68</ele>
        <time>2021-04-14T12:17:22Z</time>
      </trkpt>
      <trkpt lat="47.84422" lon="5.25584">
        <ele>421.23</ele>
        <time>2021-04-14T12:17:26Z</time>
      </trkpt>
      <trkpt lat="47.84429" lon="5.25585">
        <ele>419.85</ele>
        <time>2021-04-14T12:17:33Z</time>
      </trkpt>
      <trkpt lat="47.84432" lon="5.25585">
        <ele>419.58</ele>
        <time>2021-04-14T12:17:35Z</time>
      </trkpt>
      <trkpt lat="47.8444" lon="5.25591">
        <ele>418.11</ele>
        <time>2021-04-14T12:17:45Z</time>
      </trkpt>
      <trkpt lat="47.84439" lon="5.25591">
        <ele>417.76</ele>
        <time>2021-04-14T12:18:12Z</time>
      </trkpt>
      <trkpt lat="47.84452" lon="5.25594">
        <ele>417.62</ele>
        <time>2021-04-14T12:18:25Z</time>
      </trkpt>
      <trkpt lat="47.84462" lon="5.25597">
        <ele>417.11</ele>
        <time>2021-04-14T12:18:33Z</time>
      </trkpt>
      <trkpt lat="47.84479" lon="5.25618">
        <ele>415.67</ele>
        <time>2021-04-14T12:18:48Z</time>
      </trkpt>
      <trkpt lat="47.84493" lon="5.25646">
        <ele>415.12</ele>
        <time>2021-04-14T12:19:03Z</time>
      </trkpt>
      <trkpt lat="47.84506" lon="5.25682">
        <ele>415.32</ele>
        <time>2021-04-14T12:19:23Z</time>
      </trkpt>
      <trkpt lat="47.84517" lon="5.25705">
        <ele>415.67</ele>
        <time>2021-04-14T12:19:36Z</time>
      </trkpt>
      <trkpt lat="47.84517" lon="5.25707">
        <ele>415.75</ele>
        <time>2021-04-14T12:19:37Z</time>
      </trkpt>
      <trkpt lat="47.84517" lon="5.25714">
        <ele>416.09</ele>
        <time>2021-04-14T12:19:41Z</time>
      </trkpt>
      <trkpt lat="47.84509" lon="5.25724">
        <ele>416.21</ele>
        <time>2021-04-14T12:19:49Z</time>
      </trkpt>
      <trkpt lat="47.84493" lon="5.25747">
        <ele>416.31</ele>
        <time>2021-04-14T12:20:04Z</time>
      </trkpt>
      <trkpt lat="47.84489" lon="5.25753">
        <ele>416.23</ele>
        <time>2021-04-14T12:20:07Z</time>
      </trkpt>
      <trkpt lat="47.84488" lon="5.25756">
        <ele>416.16</ele>
        <time>2021-04-14T12:20:09Z</time>
      </trkpt>
      <trkpt lat="47.84495" lon="5.25786">
        <ele>415.92</ele>
        <time>2021-04-14T12:20:24Z</time>
      </trkpt>
      <trkpt lat="47.84509" lon="5.25801">
        <ele>416.54</ele>
        <time>2021-04-14T12:20:39Z</time>
      </trkpt>
      <trkpt lat="47.84521" lon="5.25818">
        <ele>417.38</ele>
        <time>2021-04-14T12:20:51Z</time>
      </trkpt>
      <trkpt lat="47.8454" lon="5.25835">
        <ele>417.33</ele>
        <time>2021-04-14T12:21:06Z</time>
      </trkpt>
      <trkpt lat="47.84553" lon="5.25848">
        <ele>417.24</ele>
        <time>2021-04-14T12:21:16Z</time>
      </trkpt>
      <trkpt lat="47.84566" lon="5.25864">
        <ele>417.52</ele>
        <time>2021-04-14T12:21:29Z</time>
      </trkpt>
      <trkpt lat="47.84577" lon="5.25872">
        <ele>418.01</ele>
        <time>2021-04-14T12:21:37Z</time>
      </trkpt>
      <trkpt lat="47.84586" lon="5.25878">
        <ele>418.42</ele>
        <time>2021-04-14T12:21:43Z</time>
      </trkpt>
      <trkpt lat="47.84595" lon="5.25882">
        <ele>419.06</ele>
        <time>2021-04-14T12:21:49Z</time>
      </trkpt>
      <trkpt lat="47.84614" lon="5.25892">
        <ele>418.78</ele>
        <time>2021-04-14T12:22:03Z</time>
      </trkpt>
      <trkpt lat="47.84623" lon="5.25897">
        <ele>419.16</ele>
        <time>2021-04-14T12:22:19Z</time>
      </trkpt>
      <trkpt lat="47.84628" lon="5.259">
        <ele>419.33</ele>
        <time>2021-04-14T12:22:24Z</time>
      </trkpt>
      <trkpt lat="47.8464" lon="5.25903">
        <ele>419.52</ele>
        <time>2021-04-14T12:22:31Z</time>
      </trkpt>
      <trkpt lat="47.84662" lon="5.25906">
        <ele>419.79</ele>
        <time>2021-04-14T12:22:43Z</time>
      </trkpt>
      <trkpt lat="47.84668" lon="5.25907">
        <ele>419.75</ele>
        <time>2021-04-14T12:22:50Z</time>
      </trkpt>
      <trkpt lat="47.8467" lon="5.25907">
        <ele>419.75</ele>
        <time>2021-04-14T12:22:51Z</time>
      </trkpt>
      <trkpt lat="47.84687" lon="5.25907">
        <ele>418.45</ele>
        <time>2021-04-14T12:23:04Z</time>
      </trkpt>
      <trkpt lat="47.84699" lon="5.25904">
        <ele>418.02</ele>
        <time>2021-04-14T12:23:20Z</time>
      </trkpt>
      <trkpt lat="47.84703" lon="5.25902">
        <ele>417.85</ele>
        <time>2021-04-14T12:23:23Z</time>
      </trkpt>
      <trkpt lat="47.84704" lon="5.25901">
        <ele>417.81</ele>
        <time>2021-04-14T12:23:24Z</time>
      </trkpt>
      <trkpt lat="47.84706" lon="5.259">
        <ele>417.78</ele>
        <time>2021-04-14T12:23:25Z</time>
      </trkpt>
      <trkpt lat="47.84707" lon="5.259">
        <ele>417.75</ele>
        <time>2021-04-14T12:23:26Z</time>
      </trkpt>
      <trkpt lat="47.84708" lon="5.259">
        <ele>417.74</ele>
        <time>2021-04-14T12:23:27Z</time>
      </trkpt>
      <trkpt lat="47.8471" lon="5.25899">
        <ele>417.76</ele>
        <time>2021-04-14T12:23:28Z</time>
      </trkpt>
      <trkpt lat="47.84711" lon="5.25899">
        <ele>417.77</ele>
        <time>2021-04-14T12:23:29Z</time>
      </trkpt>
      <trkpt lat="47.84712" lon="5.25898">
        <ele>417.78</ele>
        <time>2021-04-14T12:23:30Z</time>
      </trkpt>
      <trkpt lat="47.84714" lon="5.25897">
        <ele>417.75</ele>
        <time>2021-04-14T12:23:31Z</time>
      </trkpt>
      <trkpt lat="47.84725" lon="5.25892">
        <ele>416.15</ele>
        <time>2021-04-14T12:23:45Z</time>
      </trkpt>
      <trkpt lat="47.84728" lon="5.25892">
        <ele>415.93</ele>
        <time>2021-04-14T12:23:48Z</time>
      </trkpt>
      <trkpt lat="47.84729" lon="5.25891">
        <ele>415.85</ele>
        <time>2021-04-14T12:23:49Z</time>
      </trkpt>
      <trkpt lat="47.84731" lon="5.2589">
        <ele>415.78</ele>
        <time>2021-04-14T12:23:50Z</time>
      </trkpt>
      <trkpt lat="47.84751" lon="5.25883">
        <ele>413.86</ele>
        <time>2021-04-14T12:24:04Z</time>
      </trkpt>
      <trkpt lat="47.84766" lon="5.25874">
        <ele>411.61</ele>
        <time>2021-04-14T12:24:19Z</time>
      </trkpt>
      <trkpt lat="47.84779" lon="5.25862">
        <ele>408.84</ele>
        <time>2021-04-14T12:24:33Z</time>
      </trkpt>
      <trkpt lat="47.84789" lon="5.25848">
        <ele>406.4</ele>
        <time>2021-04-14T12:24:46Z</time>
      </trkpt>
      <trkpt lat="47.84792" lon="5.25843">
        <ele>405.67</ele>
        <time>2021-04-14T12:24:51Z</time>
      </trkpt>
      <trkpt lat="47.84805" lon="5.25837">
        <ele>402.77</ele>
        <time>2021-04-14T12:25:06Z</time>
      </trkpt>
      <trkpt lat="47.84816" lon="5.25833">
        <ele>401.35</ele>
        <time>2021-04-14T12:25:15Z</time>
      </trkpt>
      <trkpt lat="47.84818" lon="5.25832">
        <ele>401.24</ele>
        <time>2021-04-14T12:25:16Z</time>
      </trkpt>
      <trkpt lat="47.8482" lon="5.25832">
        <ele>401.14</ele>
        <time>2021-04-14T12:25:17Z</time>
      </trkpt>
      <trkpt lat="47.84837" lon="5.25833">
        <ele>399.81</ele>
        <time>2021-04-14T12:25:28Z</time>
      </trkpt>
      <trkpt lat="47.84846" lon="5.25833">
        <ele>398.7</ele>
        <time>2021-04-14T12:25:37Z</time>
      </trkpt>
      <trkpt lat="47.84847" lon="5.25833">
        <ele>398.6</ele>
        <time>2021-04-14T12:25:38Z</time>
      </trkpt>
      <trkpt lat="47.84849" lon="5.25832">
        <ele>398.51</ele>
        <time>2021-04-14T12:25:39Z</time>
      </trkpt>
      <trkpt lat="47.8485" lon="5.25832">
        <ele>398.42</ele>
        <time>2021-04-14T12:25:40Z</time>
      </trkpt>
      <trkpt lat="47.84851" lon="5.25832">
        <ele>398.34</ele>
        <time>2021-04-14T12:25:41Z</time>
      </trkpt>
      <trkpt lat="47.84853" lon="5.25831">
        <ele>398.25</ele>
        <time>2021-04-14T12:25:42Z</time>
      </trkpt>
      <trkpt lat="47.84854" lon="5.2583">
        <ele>398.13</ele>
        <time>2021-04-14T12:25:43Z</time>
      </trkpt>
      <trkpt lat="47.84856" lon="5.2583">
        <ele>398</ele>
        <time>2021-04-14T12:25:44Z</time>
      </trkpt>
      <trkpt lat="47.84868" lon="5.2583">
        <ele>396.99</ele>
        <time>2021-04-14T12:25:53Z</time>
      </trkpt>
      <trkpt lat="47.8488" lon="5.25825">
        <ele>395.86</ele>
        <time>2021-04-14T12:26:07Z</time>
      </trkpt>
      <trkpt lat="47.84891" lon="5.25831">
        <ele>394.71</ele>
        <time>2021-04-14T12:26:19Z</time>
      </trkpt>
      <trkpt lat="47.849" lon="5.25829">
        <ele>393.57</ele>
        <time>2021-04-14T12:26:29Z</time>
      </trkpt>
      <trkpt lat="47.84908" lon="5.25831">
        <ele>391.92</ele>
        <time>2021-04-14T12:26:42Z</time>
      </trkpt>
      <trkpt lat="47.84914" lon="5.2583">
        <ele>391.94</ele>
        <time>2021-04-14T12:26:46Z</time>
      </trkpt>
      <trkpt lat="47.84927" lon="5.25831">
        <ele>390.32</ele>
        <time>2021-04-14T12:27:02Z</time>
      </trkpt>
      <trkpt lat="47.8493" lon="5.25832">
        <ele>390</ele>
        <time>2021-04-14T12:27:04Z</time>
      </trkpt>
      <trkpt lat="47.8494" lon="5.25837">
        <ele>388.59</ele>
        <time>2021-04-14T12:27:12Z</time>
      </trkpt>
      <trkpt lat="47.84942" lon="5.25836">
        <ele>388.44</ele>
        <time>2021-04-14T12:27:13Z</time>
      </trkpt>
      <trkpt lat="47.84948" lon="5.25825">
        <ele>386.57</ele>
        <time>2021-04-14T12:27:25Z</time>
      </trkpt>
      <trkpt lat="47.84949" lon="5.25823">
        <ele>386.33</ele>
        <time>2021-04-14T12:27:27Z</time>
      </trkpt>
      <trkpt lat="47.84949" lon="5.25821">
        <ele>386.2</ele>
        <time>2021-04-14T12:27:28Z</time>
      </trkpt>
      <trkpt lat="47.84949" lon="5.2582">
        <ele>385.98</ele>
        <time>2021-04-14T12:27:29Z</time>
      </trkpt>
      <trkpt lat="47.84949" lon="5.25818">
        <ele>385.71</ele>
        <time>2021-04-14T12:27:30Z</time>
      </trkpt>
      <trkpt lat="47.84949" lon="5.25817">
        <ele>385.44</ele>
        <time>2021-04-14T12:27:31Z</time>
      </trkpt>
      <trkpt lat="47.84949" lon="5.25815">
        <ele>385.17</ele>
        <time>2021-04-14T12:27:32Z</time>
      </trkpt>
      <trkpt lat="47.84947" lon="5.25801">
        <ele>383.26</ele>
        <time>2021-04-14T12:27:46Z</time>
      </trkpt>
      <trkpt lat="47.84948" lon="5.25795">
        <ele>382.45</ele>
        <time>2021-04-14T12:28:00Z</time>
      </trkpt>
      <trkpt lat="47.84951" lon="5.25782">
        <ele>381.44</ele>
        <time>2021-04-14T12:28:11Z</time>
      </trkpt>
      <trkpt lat="47.84957" lon="5.25774">
        <ele>380.5</ele>
        <time>2021-04-14T12:28:25Z</time>
      </trkpt>
      <trkpt lat="47.84959" lon="5.2576">
        <ele>379.63</ele>
        <time>2021-04-14T12:28:39Z</time>
      </trkpt>
      <trkpt lat="47.84961" lon="5.25755">
        <ele>379.18</ele>
        <time>2021-04-14T12:28:42Z</time>
      </trkpt>
      <trkpt lat="47.84961" lon="5.25754">
        <ele>379.02</ele>
        <time>2021-04-14T12:28:43Z</time>
      </trkpt>
      <trkpt lat="47.8496" lon="5.25752">
        <ele>378.83</ele>
        <time>2021-04-14T12:28:44Z</time>
      </trkpt>
      <trkpt lat="47.8496" lon="5.25751">
        <ele>378.63</ele>
        <time>2021-04-14T12:28:45Z</time>
      </trkpt>
      <trkpt lat="47.84961" lon="5.25745">
        <ele>377.79</ele>
        <time>2021-04-14T12:28:50Z</time>
      </trkpt>
      <trkpt lat="47.84961" lon="5.25743">
        <ele>377.64</ele>
        <time>2021-04-14T12:28:51Z</time>
      </trkpt>
      <trkpt lat="47.84961" lon="5.25739">
        <ele>377.28</ele>
        <time>2021-04-14T12:28:54Z</time>
      </trkpt>
      <trkpt lat="47.84962" lon="5.25738">
        <ele>377.17</ele>
        <time>2021-04-14T12:28:55Z</time>
      </trkpt>
      <trkpt lat="47.84968" lon="5.25717">
        <ele>375.41</ele>
        <time>2021-04-14T12:29:08Z</time>
      </trkpt>
      <trkpt lat="47.84974" lon="5.25701">
        <ele>375.56</ele>
        <time>2021-04-14T12:29:20Z</time>
      </trkpt>
      <trkpt lat="47.84975" lon="5.25699">
        <ele>375.6</ele>
        <time>2021-04-14T12:29:21Z</time>
      </trkpt>
      <trkpt lat="47.84975" lon="5.25698">
        <ele>375.59</ele>
        <time>2021-04-14T12:29:22Z</time>
      </trkpt>
      <trkpt lat="47.84976" lon="5.25697">
        <ele>375.55</ele>
        <time>2021-04-14T12:29:23Z</time>
      </trkpt>
      <trkpt lat="47.84976" lon="5.25696">
        <ele>375.5</ele>
        <time>2021-04-14T12:29:24Z</time>
      </trkpt>
      <trkpt lat="47.84977" lon="5.25695">
        <ele>375.16</ele>
        <time>2021-04-14T12:29:38Z</time>
      </trkpt>
      <trkpt lat="47.84984" lon="5.2568">
        <ele>374.45</ele>
        <time>2021-04-14T12:29:53Z</time>
      </trkpt>
      <trkpt lat="47.8499" lon="5.25657">
        <ele>373.98</ele>
        <time>2021-04-14T12:30:09Z</time>
      </trkpt>
      <trkpt lat="47.84998" lon="5.25654">
        <ele>374.66</ele>
        <time>2021-04-14T12:30:24Z</time>
      </trkpt>
      <trkpt lat="47.85013" lon="5.25648">
        <ele>374.88</ele>
        <time>2021-04-14T12:30:44Z</time>
      </trkpt>
      <trkpt lat="47.85022" lon="5.25644">
        <ele>374.78</ele>
        <time>2021-04-14T12:30:57Z</time>
      </trkpt>
      <trkpt lat="47.85024" lon="5.25643">
        <ele>374.78</ele>
        <time>2021-04-14T12:30:58Z</time>
      </trkpt>
      <trkpt lat="47.85027" lon="5.25642">
        <ele>374.81</ele>
        <time>2021-04-14T12:31:00Z</time>
      </trkpt>
      <trkpt lat="47.85028" lon="5.25641">
        <ele>374.81</ele>
        <time>2021-04-14T12:31:01Z</time>
      </trkpt>
      <trkpt lat="47.85041" lon="5.25631">
        <ele>374.97</ele>
        <time>2021-04-14T12:31:17Z</time>
      </trkpt>
      <trkpt lat="47.85041" lon="5.25629">
        <ele>374.94</ele>
        <time>2021-04-14T12:31:18Z</time>
      </trkpt>
      <trkpt lat="47.85042" lon="5.25627">
        <ele>374.95</ele>
        <time>2021-04-14T12:31:19Z</time>
      </trkpt>
      <trkpt lat="47.85041" lon="5.25625">
        <ele>374.98</ele>
        <time>2021-04-14T12:31:20Z</time>
      </trkpt>
      <trkpt lat="47.85042" lon="5.25623">
        <ele>374.95</ele>
        <time>2021-04-14T12:31:21Z</time>
      </trkpt>
      <trkpt lat="47.85041" lon="5.25622">
        <ele>374.9</ele>
        <time>2021-04-14T12:31:22Z</time>
      </trkpt>
      <trkpt lat="47.85041" lon="5.2562">
        <ele>374.88</ele>
        <time>2021-04-14T12:31:23Z</time>
      </trkpt>
      <trkpt lat="47.85041" lon="5.25618">
        <ele>374.91</ele>
        <time>2021-04-14T12:31:24Z</time>
      </trkpt>
      <trkpt lat="47.85036" lon="5.25606">
        <ele>374.99</ele>
        <time>2021-04-14T12:31:31Z</time>
      </trkpt>
      <trkpt lat="47.85035" lon="5.25605">
        <ele>374.99</ele>
        <time>2021-04-14T12:31:32Z</time>
      </trkpt>
      <trkpt lat="47.85034" lon="5.25603">
        <ele>374.97</ele>
        <time>2021-04-14T12:31:33Z</time>
      </trkpt>
      <trkpt lat="47.85033" lon="5.25602">
        <ele>374.96</ele>
        <time>2021-04-14T12:31:34Z</time>
      </trkpt>
      <trkpt lat="47.85032" lon="5.25601">
        <ele>374.96</ele>
        <time>2021-04-14T12:31:35Z</time>
      </trkpt>
      <trkpt lat="47.85027" lon="5.25595">
        <ele>374.97</ele>
        <time>2021-04-14T12:31:39Z</time>
      </trkpt>
      <trkpt lat="47.85014" lon="5.25577">
        <ele>375.43</ele>
        <time>2021-04-14T12:31:53Z</time>
      </trkpt>
      <trkpt lat="47.85012" lon="5.25575">
        <ele>375.42</ele>
        <time>2021-04-14T12:31:55Z</time>
      </trkpt>
      <trkpt lat="47.85011" lon="5.25573">
        <ele>375.42</ele>
        <time>2021-04-14T12:31:56Z</time>
      </trkpt>
      <trkpt lat="47.85011" lon="5.25571">
        <ele>375.43</ele>
        <time>2021-04-14T12:31:57Z</time>
      </trkpt>
      <trkpt lat="47.85007" lon="5.25563">
        <ele>375.66</ele>
        <time>2021-04-14T12:32:13Z</time>
      </trkpt>
      <trkpt lat="47.85005" lon="5.25566">
        <ele>375.57</ele>
        <time>2021-04-14T12:32:35Z</time>
      </trkpt>
      <trkpt lat="47.85008" lon="5.25562">
        <ele>375.43</ele>
        <time>2021-04-14T12:33:04Z</time>
      </trkpt>
      <trkpt lat="47.85011" lon="5.25564">
        <ele>375.19</ele>
        <time>2021-04-14T12:35:38Z</time>
      </trkpt>
      <trkpt lat="47.85014" lon="5.25564">
        <ele>375.19</ele>
        <time>2021-04-14T12:35:39Z</time>
      </trkpt>
      <trkpt lat="47.85013" lon="5.2557">
        <ele>375.1</ele>
        <time>2021-04-14T12:35:43Z</time>
      </trkpt>
      <trkpt lat="47.85012" lon="5.25571">
        <ele>375.06</ele>
        <time>2021-04-14T12:35:44Z</time>
      </trkpt>
      <trkpt lat="47.85004" lon="5.25571">
        <ele>375.07</ele>
        <time>2021-04-14T12:35:52Z</time>
      </trkpt>
      <trkpt lat="47.85002" lon="5.2557">
        <ele>375.1</ele>
        <time>2021-04-14T12:35:53Z</time>
      </trkpt>
      <trkpt lat="47.85001" lon="5.2557">
        <ele>375.14</ele>
        <time>2021-04-14T12:35:54Z</time>
      </trkpt>
      <trkpt lat="47.85" lon="5.2557">
        <ele>375.18</ele>
        <time>2021-04-14T12:35:55Z</time>
      </trkpt>
      <trkpt lat="47.84998" lon="5.2557">
        <ele>375.2</ele>
        <time>2021-04-14T12:35:56Z</time>
      </trkpt>
      <trkpt lat="47.84989" lon="5.25567">
        <ele>375.17</ele>
        <time>2021-04-14T12:36:05Z</time>
      </trkpt>
      <trkpt lat="47.8498" lon="5.25562">
        <ele>375.27</ele>
        <time>2021-04-14T12:36:14Z</time>
      </trkpt>
      <trkpt lat="47.84979" lon="5.25561">
        <ele>375.29</ele>
        <time>2021-04-14T12:36:15Z</time>
      </trkpt>
      <trkpt lat="47.84978" lon="5.2556">
        <ele>375.32</ele>
        <time>2021-04-14T12:36:16Z</time>
      </trkpt>
      <trkpt lat="47.84977" lon="5.25559">
        <ele>375.37</ele>
        <time>2021-04-14T12:36:17Z</time>
      </trkpt>
      <trkpt lat="47.84975" lon="5.2556">
        <ele>375.5</ele>
        <time>2021-04-14T12:36:19Z</time>
      </trkpt>
      <trkpt lat="47.84973" lon="5.2556">
        <ele>375.54</ele>
        <time>2021-04-14T12:36:20Z</time>
      </trkpt>
      <trkpt lat="47.84972" lon="5.25559">
        <ele>375.59</ele>
        <time>2021-04-14T12:36:21Z</time>
      </trkpt>
      <trkpt lat="47.84955" lon="5.25553">
        <ele>375.2</ele>
        <time>2021-04-14T12:36:36Z</time>
      </trkpt>
      <trkpt lat="47.84933" lon="5.25545">
        <ele>374.87</ele>
        <time>2021-04-14T12:36:52Z</time>
      </trkpt>
      <trkpt lat="47.84925" lon="5.25542">
        <ele>375.35</ele>
        <time>2021-04-14T12:37:05Z</time>
      </trkpt>
      <trkpt lat="47.84921" lon="5.2554">
        <ele>375.52</ele>
        <time>2021-04-14T12:37:10Z</time>
      </trkpt>
      <trkpt lat="47.8492" lon="5.2554">
        <ele>375.53</ele>
        <time>2021-04-14T12:37:11Z</time>
      </trkpt>
      <trkpt lat="47.84918" lon="5.25538">
        <ele>375.46</ele>
        <time>2021-04-14T12:37:13Z</time>
      </trkpt>
      <trkpt lat="47.84905" lon="5.25527">
        <ele>375.49</ele>
        <time>2021-04-14T12:37:29Z</time>
      </trkpt>
      <trkpt lat="47.84903" lon="5.25526">
        <ele>375.52</ele>
        <time>2021-04-14T12:37:30Z</time>
      </trkpt>
      <trkpt lat="47.84899" lon="5.25523">
        <ele>375.56</ele>
        <time>2021-04-14T12:37:33Z</time>
      </trkpt>
      <trkpt lat="47.84897" lon="5.25522">
        <ele>375.56</ele>
        <time>2021-04-14T12:37:34Z</time>
      </trkpt>
      <trkpt lat="47.84895" lon="5.25521">
        <ele>375.54</ele>
        <time>2021-04-14T12:37:35Z</time>
      </trkpt>
      <trkpt lat="47.84894" lon="5.2552">
        <ele>375.52</ele>
        <time>2021-04-14T12:37:36Z</time>
      </trkpt>
      <trkpt lat="47.84892" lon="5.25519">
        <ele>375.5</ele>
        <time>2021-04-14T12:37:37Z</time>
      </trkpt>
      <trkpt lat="47.84891" lon="5.25517">
        <ele>375.49</ele>
        <time>2021-04-14T12:37:38Z</time>
      </trkpt>
      <trkpt lat="47.8489" lon="5.25516">
        <ele>375.48</ele>
        <time>2021-04-14T12:37:39Z</time>
      </trkpt>
      <trkpt lat="47.84876" lon="5.25509">
        <ele>375.46</ele>
        <time>2021-04-14T12:37:52Z</time>
      </trkpt>
      <trkpt lat="47.84872" lon="5.25504">
        <ele>375.67</ele>
        <time>2021-04-14T12:37:57Z</time>
      </trkpt>
      <trkpt lat="47.84871" lon="5.25503">
        <ele>375.75</ele>
        <time>2021-04-14T12:37:58Z</time>
      </trkpt>
      <trkpt lat="47.84856" lon="5.25493">
        <ele>375.83</ele>
        <time>2021-04-14T12:38:09Z</time>
      </trkpt>
      <trkpt lat="47.84855" lon="5.25493">
        <ele>375.89</ele>
        <time>2021-04-14T12:38:10Z</time>
      </trkpt>
      <trkpt lat="47.84853" lon="5.25492">
        <ele>375.95</ele>
        <time>2021-04-14T12:38:11Z</time>
      </trkpt>
      <trkpt lat="47.84845" lon="5.25487">
        <ele>375.93</ele>
        <time>2021-04-14T12:38:20Z</time>
      </trkpt>
      <trkpt lat="47.84844" lon="5.25486">
        <ele>375.86</ele>
        <time>2021-04-14T12:38:21Z</time>
      </trkpt>
      <trkpt lat="47.84826" lon="5.25472">
        <ele>375.58</ele>
        <time>2021-04-14T12:38:37Z</time>
      </trkpt>
      <trkpt lat="47.84808" lon="5.25455">
        <ele>375.8</ele>
        <time>2021-04-14T12:38:55Z</time>
      </trkpt>
      <trkpt lat="47.84791" lon="5.25438">
        <ele>375.69</ele>
        <time>2021-04-14T12:39:11Z</time>
      </trkpt>
      <trkpt lat="47.84785" lon="5.25432">
        <ele>375.63</ele>
        <time>2021-04-14T12:39:19Z</time>
      </trkpt>
      <trkpt lat="47.84784" lon="5.25431">
        <ele>375.62</ele>
        <time>2021-04-14T12:39:20Z</time>
      </trkpt>
      <trkpt lat="47.84783" lon="5.25429">
        <ele>375.62</ele>
        <time>2021-04-14T12:39:21Z</time>
      </trkpt>
      <trkpt lat="47.84782" lon="5.25428">
        <ele>375.62</ele>
        <time>2021-04-14T12:39:22Z</time>
      </trkpt>
      <trkpt lat="47.84781" lon="5.25427">
        <ele>375.62</ele>
        <time>2021-04-14T12:39:23Z</time>
      </trkpt>
      <trkpt lat="47.8478" lon="5.25425">
        <ele>375.62</ele>
        <time>2021-04-14T12:39:24Z</time>
      </trkpt>
      <trkpt lat="47.8478" lon="5.25424">
        <ele>375.62</ele>
        <time>2021-04-14T12:39:25Z</time>
      </trkpt>
      <trkpt lat="47.84762" lon="5.25403">
        <ele>375.55</ele>
        <time>2021-04-14T12:39:43Z</time>
      </trkpt>
      <trkpt lat="47.8475" lon="5.25384">
        <ele>376.13</ele>
        <time>2021-04-14T12:39:56Z</time>
      </trkpt>
      <trkpt lat="47.84739" lon="5.25369">
        <ele>376.36</ele>
        <time>2021-04-14T12:40:10Z</time>
      </trkpt>
      <trkpt lat="47.84728" lon="5.25354">
        <ele>376.36</ele>
        <time>2021-04-14T12:40:22Z</time>
      </trkpt>
      <trkpt lat="47.84727" lon="5.25353">
        <ele>376.4</ele>
        <time>2021-04-14T12:40:23Z</time>
      </trkpt>
      <trkpt lat="47.84725" lon="5.25352">
        <ele>376.45</ele>
        <time>2021-04-14T12:40:24Z</time>
      </trkpt>
      <trkpt lat="47.84724" lon="5.25351">
        <ele>376.51</ele>
        <time>2021-04-14T12:40:25Z</time>
      </trkpt>
      <trkpt lat="47.84723" lon="5.2535">
        <ele>376.56</ele>
        <time>2021-04-14T12:40:26Z</time>
      </trkpt>
      <trkpt lat="47.84711" lon="5.25341">
        <ele>377.07</ele>
        <time>2021-04-14T12:40:38Z</time>
      </trkpt>
      <trkpt lat="47.84697" lon="5.25331">
        <ele>376.62</ele>
        <time>2021-04-14T12:40:51Z</time>
      </trkpt>
      <trkpt lat="47.84696" lon="5.2533">
        <ele>376.62</ele>
        <time>2021-04-14T12:40:52Z</time>
      </trkpt>
      <trkpt lat="47.84695" lon="5.25329">
        <ele>376.64</ele>
        <time>2021-04-14T12:40:53Z</time>
      </trkpt>
      <trkpt lat="47.84694" lon="5.25329">
        <ele>376.65</ele>
        <time>2021-04-14T12:40:54Z</time>
      </trkpt>
      <trkpt lat="47.84693" lon="5.25327">
        <ele>376.67</ele>
        <time>2021-04-14T12:40:55Z</time>
      </trkpt>
      <trkpt lat="47.84692" lon="5.25326">
        <ele>376.68</ele>
        <time>2021-04-14T12:40:56Z</time>
      </trkpt>
      <trkpt lat="47.84691" lon="5.25325">
        <ele>376.69</ele>
        <time>2021-04-14T12:40:57Z</time>
      </trkpt>
      <trkpt lat="47.84673" lon="5.25302">
        <ele>376.35</ele>
        <time>2021-04-14T12:41:15Z</time>
      </trkpt>
      <trkpt lat="47.8466" lon="5.25286">
        <ele>376.5</ele>
        <time>2021-04-14T12:41:30Z</time>
      </trkpt>
      <trkpt lat="47.84648" lon="5.25268">
        <ele>376.54</ele>
        <time>2021-04-14T12:41:43Z</time>
      </trkpt>
      <trkpt lat="47.84635" lon="5.25252">
        <ele>376.74</ele>
        <time>2021-04-14T12:41:57Z</time>
      </trkpt>
      <trkpt lat="47.84622" lon="5.25236">
        <ele>376.8</ele>
        <time>2021-04-14T12:42:10Z</time>
      </trkpt>
      <trkpt lat="47.84616" lon="5.25229">
        <ele>376.55</ele>
        <time>2021-04-14T12:42:16Z</time>
      </trkpt>
      <trkpt lat="47.84615" lon="5.25228">
        <ele>376.56</ele>
        <time>2021-04-14T12:42:17Z</time>
      </trkpt>
      <trkpt lat="47.84614" lon="5.25226">
        <ele>376.58</ele>
        <time>2021-04-14T12:42:18Z</time>
      </trkpt>
      <trkpt lat="47.84613" lon="5.25225">
        <ele>376.58</ele>
        <time>2021-04-14T12:42:19Z</time>
      </trkpt>
      <trkpt lat="47.84612" lon="5.25223">
        <ele>376.58</ele>
        <time>2021-04-14T12:42:20Z</time>
      </trkpt>
      <trkpt lat="47.8461" lon="5.25222">
        <ele>376.58</ele>
        <time>2021-04-14T12:42:21Z</time>
      </trkpt>
      <trkpt lat="47.84609" lon="5.2522">
        <ele>376.59</ele>
        <time>2021-04-14T12:42:22Z</time>
      </trkpt>
      <trkpt lat="47.846" lon="5.2521">
        <ele>376.5</ele>
        <time>2021-04-14T12:42:31Z</time>
      </trkpt>
      <trkpt lat="47.84587" lon="5.25199">
        <ele>376.58</ele>
        <time>2021-04-14T12:42:44Z</time>
      </trkpt>
      <trkpt lat="47.84583" lon="5.25193">
        <ele>376.65</ele>
        <time>2021-04-14T12:42:48Z</time>
      </trkpt>
      <trkpt lat="47.84582" lon="5.25192">
        <ele>376.66</ele>
        <time>2021-04-14T12:42:49Z</time>
      </trkpt>
      <trkpt lat="47.84581" lon="5.25191">
        <ele>376.66</ele>
        <time>2021-04-14T12:42:50Z</time>
      </trkpt>
      <trkpt lat="47.8458" lon="5.2519">
        <ele>376.64</ele>
        <time>2021-04-14T12:42:51Z</time>
      </trkpt>
      <trkpt lat="47.84579" lon="5.25189">
        <ele>376.63</ele>
        <time>2021-04-14T12:42:52Z</time>
      </trkpt>
      <trkpt lat="47.84565" lon="5.25168">
        <ele>376.68</ele>
        <time>2021-04-14T12:43:07Z</time>
      </trkpt>
      <trkpt lat="47.84557" lon="5.25158">
        <ele>376.67</ele>
        <time>2021-04-14T12:43:16Z</time>
      </trkpt>
      <trkpt lat="47.84556" lon="5.25157">
        <ele>376.68</ele>
        <time>2021-04-14T12:43:17Z</time>
      </trkpt>
      <trkpt lat="47.84554" lon="5.25154">
        <ele>376.66</ele>
        <time>2021-04-14T12:43:20Z</time>
      </trkpt>
      <trkpt lat="47.84553" lon="5.25153">
        <ele>376.62</ele>
        <time>2021-04-14T12:43:21Z</time>
      </trkpt>
      <trkpt lat="47.84537" lon="5.25125">
        <ele>376.53</ele>
        <time>2021-04-14T12:43:41Z</time>
      </trkpt>
      <trkpt lat="47.84533" lon="5.25121">
        <ele>376.48</ele>
        <time>2021-04-14T12:43:44Z</time>
      </trkpt>
      <trkpt lat="47.84532" lon="5.2512">
        <ele>376.46</ele>
        <time>2021-04-14T12:43:45Z</time>
      </trkpt>
      <trkpt lat="47.84531" lon="5.25118">
        <ele>376.45</ele>
        <time>2021-04-14T12:43:46Z</time>
      </trkpt>
      <trkpt lat="47.8453" lon="5.25117">
        <ele>376.46</ele>
        <time>2021-04-14T12:43:47Z</time>
      </trkpt>
      <trkpt lat="47.8453" lon="5.25115">
        <ele>376.47</ele>
        <time>2021-04-14T12:43:48Z</time>
      </trkpt>
      <trkpt lat="47.84529" lon="5.25113">
        <ele>376.51</ele>
        <time>2021-04-14T12:43:49Z</time>
      </trkpt>
      <trkpt lat="47.84528" lon="5.25112">
        <ele>376.54</ele>
        <time>2021-04-14T12:43:50Z</time>
      </trkpt>
      <trkpt lat="47.84514" lon="5.25093">
        <ele>376.98</ele>
        <time>2021-04-14T12:44:04Z</time>
      </trkpt>
      <trkpt lat="47.84503" lon="5.25082">
        <ele>377.4</ele>
        <time>2021-04-14T12:44:16Z</time>
      </trkpt>
      <trkpt lat="47.845" lon="5.25078">
        <ele>377.59</ele>
        <time>2021-04-14T12:44:23Z</time>
      </trkpt>
      <trkpt lat="47.84497" lon="5.25074">
        <ele>377.56</ele>
        <time>2021-04-14T12:44:27Z</time>
      </trkpt>
      <trkpt lat="47.84495" lon="5.25071">
        <ele>377.54</ele>
        <time>2021-04-14T12:44:29Z</time>
      </trkpt>
      <trkpt lat="47.84494" lon="5.2507">
        <ele>377.55</ele>
        <time>2021-04-14T12:44:30Z</time>
      </trkpt>
      <trkpt lat="47.84493" lon="5.25069">
        <ele>377.56</ele>
        <time>2021-04-14T12:44:31Z</time>
      </trkpt>
      <trkpt lat="47.8448" lon="5.25052">
        <ele>377.56</ele>
        <time>2021-04-14T12:44:44Z</time>
      </trkpt>
      <trkpt lat="47.84468" lon="5.25034">
        <ele>377.52</ele>
        <time>2021-04-14T12:44:58Z</time>
      </trkpt>
      <trkpt lat="47.84466" lon="5.25029">
        <ele>377.58</ele>
        <time>2021-04-14T12:45:02Z</time>
      </trkpt>
      <trkpt lat="47.84469" lon="5.25003">
        <ele>378.38</ele>
        <time>2021-04-14T12:45:17Z</time>
      </trkpt>
      <trkpt lat="47.84473" lon="5.24983">
        <ele>378.99</ele>
        <time>2021-04-14T12:45:32Z</time>
      </trkpt>
      <trkpt lat="47.84473" lon="5.24981">
        <ele>378.97</ele>
        <time>2021-04-14T12:45:33Z</time>
      </trkpt>
      <trkpt lat="47.84473" lon="5.24979">
        <ele>378.97</ele>
        <time>2021-04-14T12:45:34Z</time>
      </trkpt>
      <trkpt lat="47.84473" lon="5.24977">
        <ele>379.02</ele>
        <time>2021-04-14T12:45:35Z</time>
      </trkpt>
      <trkpt lat="47.84474" lon="5.24975">
        <ele>379.08</ele>
        <time>2021-04-14T12:45:36Z</time>
      </trkpt>
      <trkpt lat="47.84474" lon="5.24973">
        <ele>379.15</ele>
        <time>2021-04-14T12:45:37Z</time>
      </trkpt>
      <trkpt lat="47.84478" lon="5.24949">
        <ele>380.95</ele>
        <time>2021-04-14T12:45:50Z</time>
      </trkpt>
      <trkpt lat="47.84475" lon="5.2494">
        <ele>381.61</ele>
        <time>2021-04-14T12:45:56Z</time>
      </trkpt>
      <trkpt lat="47.84464" lon="5.24927">
        <ele>381.16</ele>
        <time>2021-04-14T12:46:07Z</time>
      </trkpt>
      <trkpt lat="47.84447" lon="5.2491">
        <ele>380.71</ele>
        <time>2021-04-14T12:46:23Z</time>
      </trkpt>
      <trkpt lat="47.84435" lon="5.24895">
        <ele>381.18</ele>
        <time>2021-04-14T12:46:37Z</time>
      </trkpt>
      <trkpt lat="47.84431" lon="5.24891">
        <ele>381.43</ele>
        <time>2021-04-14T12:46:41Z</time>
      </trkpt>
      <trkpt lat="47.84429" lon="5.24889">
        <ele>381.55</ele>
        <time>2021-04-14T12:46:43Z</time>
      </trkpt>
      <trkpt lat="47.84419" lon="5.24876">
        <ele>382.76</ele>
        <time>2021-04-14T12:46:57Z</time>
      </trkpt>
      <trkpt lat="47.84409" lon="5.24864">
        <ele>383.14</ele>
        <time>2021-04-14T12:47:10Z</time>
      </trkpt>
      <trkpt lat="47.84393" lon="5.24847">
        <ele>382.22</ele>
        <time>2021-04-14T12:47:25Z</time>
      </trkpt>
      <trkpt lat="47.84389" lon="5.24841">
        <ele>382.13</ele>
        <time>2021-04-14T12:47:29Z</time>
      </trkpt>
      <trkpt lat="47.84384" lon="5.24837">
        <ele>382.13</ele>
        <time>2021-04-14T12:47:33Z</time>
      </trkpt>
      <trkpt lat="47.84368" lon="5.2482">
        <ele>382.28</ele>
        <time>2021-04-14T12:47:49Z</time>
      </trkpt>
      <trkpt lat="47.84352" lon="5.24803">
        <ele>382.83</ele>
        <time>2021-04-14T12:48:04Z</time>
      </trkpt>
      <trkpt lat="47.84347" lon="5.24798">
        <ele>382.97</ele>
        <time>2021-04-14T12:48:09Z</time>
      </trkpt>
      <trkpt lat="47.84332" lon="5.24786">
        <ele>383.78</ele>
        <time>2021-04-14T12:48:22Z</time>
      </trkpt>
      <trkpt lat="47.84326" lon="5.2478">
        <ele>383.98</ele>
        <time>2021-04-14T12:48:27Z</time>
      </trkpt>
      <trkpt lat="47.84311" lon="5.24769">
        <ele>385.08</ele>
        <time>2021-04-14T12:48:40Z</time>
      </trkpt>
      <trkpt lat="47.84298" lon="5.24764">
        <ele>385.7</ele>
        <time>2021-04-14T12:48:53Z</time>
      </trkpt>
      <trkpt lat="47.84276" lon="5.24755">
        <ele>384.68</ele>
        <time>2021-04-14T12:49:12Z</time>
      </trkpt>
      <trkpt lat="47.84273" lon="5.24752">
        <ele>384.27</ele>
        <time>2021-04-14T12:49:16Z</time>
      </trkpt>
      <trkpt lat="47.8426" lon="5.24744">
        <ele>384.38</ele>
        <time>2021-04-14T12:49:27Z</time>
      </trkpt>
      <trkpt lat="47.84247" lon="5.24735">
        <ele>384.55</ele>
        <time>2021-04-14T12:49:37Z</time>
      </trkpt>
      <trkpt lat="47.84224" lon="5.24718">
        <ele>384.99</ele>
        <time>2021-04-14T12:49:56Z</time>
      </trkpt>
      <trkpt lat="47.84203" lon="5.24701">
        <ele>385.99</ele>
        <time>2021-04-14T12:50:15Z</time>
      </trkpt>
      <trkpt lat="47.84184" lon="5.24679">
        <ele>385.36</ele>
        <time>2021-04-14T12:50:33Z</time>
      </trkpt>
      <trkpt lat="47.84168" lon="5.2466">
        <ele>384.62</ele>
        <time>2021-04-14T12:50:50Z</time>
      </trkpt>
      <trkpt lat="47.84156" lon="5.24638">
        <ele>385</ele>
        <time>2021-04-14T12:51:07Z</time>
      </trkpt>
      <trkpt lat="47.84149" lon="5.24627">
        <ele>385.45</ele>
        <time>2021-04-14T12:51:15Z</time>
      </trkpt>
      <trkpt lat="47.84138" lon="5.24611">
        <ele>385.45</ele>
        <time>2021-04-14T12:51:29Z</time>
      </trkpt>
      <trkpt lat="47.84122" lon="5.24587">
        <ele>385.1</ele>
        <time>2021-04-14T12:51:51Z</time>
      </trkpt>
      <trkpt lat="47.84117" lon="5.24578">
        <ele>385.26</ele>
        <time>2021-04-14T12:52:01Z</time>
      </trkpt>
      <trkpt lat="47.84114" lon="5.24574">
        <ele>385.18</ele>
        <time>2021-04-14T12:52:04Z</time>
      </trkpt>
      <trkpt lat="47.841" lon="5.2456">
        <ele>384.67</ele>
        <time>2021-04-14T12:52:16Z</time>
      </trkpt>
      <trkpt lat="47.84088" lon="5.24544">
        <ele>385.18</ele>
        <time>2021-04-14T12:52:31Z</time>
      </trkpt>
      <trkpt lat="47.84074" lon="5.24539">
        <ele>383.91</ele>
        <time>2021-04-14T12:52:48Z</time>
      </trkpt>
      <trkpt lat="47.84056" lon="5.24521">
        <ele>381.67</ele>
        <time>2021-04-14T12:53:09Z</time>
      </trkpt>
      <trkpt lat="47.8404" lon="5.24498">
        <ele>383.13</ele>
        <time>2021-04-14T12:53:28Z</time>
      </trkpt>
      <trkpt lat="47.84026" lon="5.24472">
        <ele>382.81</ele>
        <time>2021-04-14T12:53:46Z</time>
      </trkpt>
      <trkpt lat="47.84013" lon="5.24459">
        <ele>382.11</ele>
        <time>2021-04-14T12:54:05Z</time>
      </trkpt>
      <trkpt lat="47.83999" lon="5.24447">
        <ele>381.72</ele>
        <time>2021-04-14T12:54:26Z</time>
      </trkpt>
      <trkpt lat="47.8398" lon="5.24425">
        <ele>381.69</ele>
        <time>2021-04-14T12:54:49Z</time>
      </trkpt>
      <trkpt lat="47.83965" lon="5.24402">
        <ele>382.1</ele>
        <time>2021-04-14T12:55:07Z</time>
      </trkpt>
      <trkpt lat="47.83943" lon="5.2436">
        <ele>382.35</ele>
        <time>2021-04-14T12:55:32Z</time>
      </trkpt>
      <trkpt lat="47.8393" lon="5.24331">
        <ele>382.02</ele>
        <time>2021-04-14T12:55:52Z</time>
      </trkpt>
      <trkpt lat="47.83916" lon="5.2431">
        <ele>381.85</ele>
        <time>2021-04-14T12:56:07Z</time>
      </trkpt>
      <trkpt lat="47.83904" lon="5.24288">
        <ele>382.07</ele>
        <time>2021-04-14T12:56:23Z</time>
      </trkpt>
      <trkpt lat="47.83891" lon="5.24268">
        <ele>382.45</ele>
        <time>2021-04-14T12:56:41Z</time>
      </trkpt>
      <trkpt lat="47.83883" lon="5.24247">
        <ele>382.49</ele>
        <time>2021-04-14T12:56:56Z</time>
      </trkpt>
      <trkpt lat="47.83891" lon="5.24221">
        <ele>385.05</ele>
        <time>2021-04-14T12:57:16Z</time>
      </trkpt>
      <trkpt lat="47.83893" lon="5.24212">
        <ele>386.02</ele>
        <time>2021-04-14T12:57:20Z</time>
      </trkpt>
      <trkpt lat="47.83898" lon="5.24178">
        <ele>389.38</ele>
        <time>2021-04-14T12:57:40Z</time>
      </trkpt>
      <trkpt lat="47.83905" lon="5.24146">
        <ele>392</ele>
        <time>2021-04-14T12:58:02Z</time>
      </trkpt>
      <trkpt lat="47.83905" lon="5.24112">
        <ele>393.48</ele>
        <time>2021-04-14T12:58:21Z</time>
      </trkpt>
      <trkpt lat="47.83902" lon="5.24076">
        <ele>393.52</ele>
        <time>2021-04-14T12:58:41Z</time>
      </trkpt>
      <trkpt lat="47.83894" lon="5.24047">
        <ele>392.74</ele>
        <time>2021-04-14T12:58:58Z</time>
      </trkpt>
      <trkpt lat="47.8388" lon="5.2401">
        <ele>392.61</ele>
        <time>2021-04-14T12:59:20Z</time>
      </trkpt>
      <trkpt lat="47.83871" lon="5.23984">
        <ele>392.88</ele>
        <time>2021-04-14T12:59:41Z</time>
      </trkpt>
      <trkpt lat="47.83857" lon="5.23948">
        <ele>390.9</ele>
        <time>2021-04-14T13:00:01Z</time>
      </trkpt>
      <trkpt lat="47.83851" lon="5.23933">
        <ele>389.49</ele>
        <time>2021-04-14T13:00:11Z</time>
      </trkpt>
      <trkpt lat="47.83837" lon="5.23889">
        <ele>388.66</ele>
        <time>2021-04-14T13:00:34Z</time>
      </trkpt>
      <trkpt lat="47.83831" lon="5.23871">
        <ele>388.63</ele>
        <time>2021-04-14T13:00:45Z</time>
      </trkpt>
      <trkpt lat="47.83823" lon="5.23855">
        <ele>388.2</ele>
        <time>2021-04-14T13:01:05Z</time>
      </trkpt>
      <trkpt lat="47.83815" lon="5.23843">
        <ele>388.01</ele>
        <time>2021-04-14T13:01:19Z</time>
      </trkpt>
      <trkpt lat="47.83793" lon="5.23817">
        <ele>388.45</ele>
        <time>2021-04-14T13:01:44Z</time>
      </trkpt>
      <trkpt lat="47.83782" lon="5.23804">
        <ele>387.93</ele>
        <time>2021-04-14T13:02:04Z</time>
      </trkpt>
      <trkpt lat="47.83759" lon="5.23788">
        <ele>387.97</ele>
        <time>2021-04-14T13:02:24Z</time>
      </trkpt>
      <trkpt lat="47.8374" lon="5.23777">
        <ele>389.77</ele>
        <time>2021-04-14T13:02:43Z</time>
      </trkpt>
      <trkpt lat="47.83728" lon="5.23761">
        <ele>391.82</ele>
        <time>2021-04-14T13:02:56Z</time>
      </trkpt>
      <trkpt lat="47.83714" lon="5.23738">
        <ele>394.49</ele>
        <time>2021-04-14T13:03:12Z</time>
      </trkpt>
      <trkpt lat="47.83696" lon="5.23705">
        <ele>396.15</ele>
        <time>2021-04-14T13:03:33Z</time>
      </trkpt>
      <trkpt lat="47.83679" lon="5.23683">
        <ele>395.06</ele>
        <time>2021-04-14T13:03:52Z</time>
      </trkpt>
      <trkpt lat="47.83661" lon="5.23673">
        <ele>393.62</ele>
        <time>2021-04-14T13:04:10Z</time>
      </trkpt>
      <trkpt lat="47.83641" lon="5.2364">
        <ele>391.45</ele>
        <time>2021-04-14T13:04:32Z</time>
      </trkpt>
      <trkpt lat="47.83628" lon="5.23607">
        <ele>390.14</ele>
        <time>2021-04-14T13:04:51Z</time>
      </trkpt>
      <trkpt lat="47.83621" lon="5.23584">
        <ele>389.76</ele>
        <time>2021-04-14T13:05:10Z</time>
      </trkpt>
      <trkpt lat="47.83618" lon="5.2357">
        <ele>390.03</ele>
        <time>2021-04-14T13:05:26Z</time>
      </trkpt>
      <trkpt lat="47.83614" lon="5.23548">
        <ele>389.86</ele>
        <time>2021-04-14T13:05:49Z</time>
      </trkpt>
      <trkpt lat="47.83613" lon="5.23531">
        <ele>390.14</ele>
        <time>2021-04-14T13:06:14Z</time>
      </trkpt>
      <trkpt lat="47.83603" lon="5.23493">
        <ele>390.48</ele>
        <time>2021-04-14T13:06:40Z</time>
      </trkpt>
      <trkpt lat="47.83598" lon="5.2348">
        <ele>390.82</ele>
        <time>2021-04-14T13:06:50Z</time>
      </trkpt>
      <trkpt lat="47.83592" lon="5.23461">
        <ele>391.32</ele>
        <time>2021-04-14T13:07:02Z</time>
      </trkpt>
      <trkpt lat="47.83593" lon="5.23454">
        <ele>391.32</ele>
        <time>2021-04-14T13:07:07Z</time>
      </trkpt>
      <trkpt lat="47.83592" lon="5.23444">
        <ele>391.48</ele>
        <time>2021-04-14T13:07:11Z</time>
      </trkpt>
      <trkpt lat="47.83585" lon="5.23431">
        <ele>391.71</ele>
        <time>2021-04-14T13:07:20Z</time>
      </trkpt>
      <trkpt lat="47.83578" lon="5.23425">
        <ele>391.84</ele>
        <time>2021-04-14T13:07:33Z</time>
      </trkpt>
      <trkpt lat="47.83574" lon="5.23424">
        <ele>392.01</ele>
        <time>2021-04-14T13:07:43Z</time>
      </trkpt>
      <trkpt lat="47.83564" lon="5.2344">
        <ele>392.04</ele>
        <time>2021-04-14T13:07:58Z</time>
      </trkpt>
      <trkpt lat="47.8355" lon="5.23456">
        <ele>394.16</ele>
        <time>2021-04-14T13:08:16Z</time>
      </trkpt>
      <trkpt lat="47.83545" lon="5.23461">
        <ele>395.43</ele>
        <time>2021-04-14T13:08:25Z</time>
      </trkpt>
      <trkpt lat="47.83541" lon="5.23466">
        <ele>395.98</ele>
        <time>2021-04-14T13:08:30Z</time>
      </trkpt>
      <trkpt lat="47.83535" lon="5.23477">
        <ele>396.69</ele>
        <time>2021-04-14T13:08:38Z</time>
      </trkpt>
      <trkpt lat="47.8352" lon="5.23484">
        <ele>394.44</ele>
        <time>2021-04-14T13:08:59Z</time>
      </trkpt>
      <trkpt lat="47.83518" lon="5.23484">
        <ele>394.14</ele>
        <time>2021-04-14T13:09:08Z</time>
      </trkpt>
      <trkpt lat="47.83508" lon="5.23486">
        <ele>393.65</ele>
        <time>2021-04-14T13:09:16Z</time>
      </trkpt>
      <trkpt lat="47.83498" lon="5.23482">
        <ele>393.45</ele>
        <time>2021-04-14T13:09:25Z</time>
      </trkpt>
      <trkpt lat="47.83496" lon="5.23483">
        <ele>393.56</ele>
        <time>2021-04-14T13:09:27Z</time>
      </trkpt>
      <trkpt lat="47.83483" lon="5.23483">
        <ele>394.19</ele>
        <time>2021-04-14T13:09:37Z</time>
      </trkpt>
      <trkpt lat="47.8348" lon="5.23485">
        <ele>394.4</ele>
        <time>2021-04-14T13:09:44Z</time>
      </trkpt>
      <trkpt lat="47.83481" lon="5.23492">
        <ele>394.52</ele>
        <time>2021-04-14T13:09:59Z</time>
      </trkpt>
      <trkpt lat="47.83481" lon="5.23493">
        <ele>393.77</ele>
        <time>2021-04-14T13:10:15Z</time>
      </trkpt>
      <trkpt lat="47.83484" lon="5.23505">
        <ele>394.77</ele>
        <time>2021-04-14T13:10:27Z</time>
      </trkpt>
      <trkpt lat="47.83486" lon="5.23513">
        <ele>395.05</ele>
        <time>2021-04-14T13:10:37Z</time>
      </trkpt>
      <trkpt lat="47.83492" lon="5.23525">
        <ele>393.81</ele>
        <time>2021-04-14T13:10:55Z</time>
      </trkpt>
      <trkpt lat="47.83496" lon="5.23524">
        <ele>393.35</ele>
        <time>2021-04-14T13:11:07Z</time>
      </trkpt>
      <trkpt lat="47.835" lon="5.2353">
        <ele>393.12</ele>
        <time>2021-04-14T13:11:16Z</time>
      </trkpt>
      <trkpt lat="47.83511" lon="5.2354">
        <ele>392.86</ele>
        <time>2021-04-14T13:11:29Z</time>
      </trkpt>
      <trkpt lat="47.83513" lon="5.23545">
        <ele>392.85</ele>
        <time>2021-04-14T13:11:33Z</time>
      </trkpt>
      <trkpt lat="47.83513" lon="5.23549">
        <ele>392.86</ele>
        <time>2021-04-14T13:11:44Z</time>
      </trkpt>
      <trkpt lat="47.83517" lon="5.23547">
        <ele>393.08</ele>
        <time>2021-04-14T13:12:06Z</time>
      </trkpt>
      <trkpt lat="47.83519" lon="5.23557">
        <ele>393.23</ele>
        <time>2021-04-14T13:12:22Z</time>
      </trkpt>
      <trkpt lat="47.8352" lon="5.23558">
        <ele>393.12</ele>
        <time>2021-04-14T13:12:24Z</time>
      </trkpt>
      <trkpt lat="47.83526" lon="5.23567">
        <ele>392.74</ele>
        <time>2021-04-14T13:12:32Z</time>
      </trkpt>
      <trkpt lat="47.83529" lon="5.23574">
        <ele>392.75</ele>
        <time>2021-04-14T13:12:37Z</time>
      </trkpt>
      <trkpt lat="47.83532" lon="5.23577">
        <ele>392.75</ele>
        <time>2021-04-14T13:12:41Z</time>
      </trkpt>
      <trkpt lat="47.83534" lon="5.23583">
        <ele>392.84</ele>
        <time>2021-04-14T13:12:45Z</time>
      </trkpt>
      <trkpt lat="47.83539" lon="5.2359">
        <ele>392.38</ele>
        <time>2021-04-14T13:12:52Z</time>
      </trkpt>
      <trkpt lat="47.83541" lon="5.23595">
        <ele>392.18</ele>
        <time>2021-04-14T13:12:57Z</time>
      </trkpt>
      <trkpt lat="47.83546" lon="5.23602">
        <ele>391.73</ele>
        <time>2021-04-14T13:13:08Z</time>
      </trkpt>
      <trkpt lat="47.83544" lon="5.23598">
        <ele>391.5</ele>
        <time>2021-04-14T13:13:17Z</time>
      </trkpt>
      <trkpt lat="47.83543" lon="5.236">
        <ele>392.38</ele>
        <time>2021-04-14T13:13:28Z</time>
      </trkpt>
      <trkpt lat="47.83545" lon="5.23601">
        <ele>392.41</ele>
        <time>2021-04-14T13:13:30Z</time>
      </trkpt>
      <trkpt lat="47.83547" lon="5.23604">
        <ele>392.37</ele>
        <time>2021-04-14T13:13:32Z</time>
      </trkpt>
      <trkpt lat="47.83551" lon="5.23615">
        <ele>391.67</ele>
        <time>2021-04-14T13:13:42Z</time>
      </trkpt>
      <trkpt lat="47.83551" lon="5.23619">
        <ele>391.53</ele>
        <time>2021-04-14T13:13:44Z</time>
      </trkpt>
      <trkpt lat="47.83557" lon="5.23626">
        <ele>391.63</ele>
        <time>2021-04-14T13:13:53Z</time>
      </trkpt>
      <trkpt lat="47.83566" lon="5.23639">
        <ele>391.96</ele>
        <time>2021-04-14T13:14:10Z</time>
      </trkpt>
      <trkpt lat="47.83576" lon="5.23658">
        <ele>391.32</ele>
        <time>2021-04-14T13:14:27Z</time>
      </trkpt>
      <trkpt lat="47.83582" lon="5.23668">
        <ele>390.97</ele>
        <time>2021-04-14T13:14:37Z</time>
      </trkpt>
      <trkpt lat="47.83588" lon="5.2368">
        <ele>390.51</ele>
        <time>2021-04-14T13:14:48Z</time>
      </trkpt>
      <trkpt lat="47.83595" lon="5.23702">
        <ele>391.68</ele>
        <time>2021-04-14T13:15:07Z</time>
      </trkpt>
      <trkpt lat="47.83597" lon="5.23705">
        <ele>391.66</ele>
        <time>2021-04-14T13:15:12Z</time>
      </trkpt>
      <trkpt lat="47.83605" lon="5.23725">
        <ele>391.53</ele>
        <time>2021-04-14T13:15:26Z</time>
      </trkpt>
      <trkpt lat="47.83606" lon="5.23727">
        <ele>391.53</ele>
        <time>2021-04-14T13:15:27Z</time>
      </trkpt>
      <trkpt lat="47.83611" lon="5.23738">
        <ele>391.41</ele>
        <time>2021-04-14T13:15:36Z</time>
      </trkpt>
      <trkpt lat="47.83612" lon="5.2374">
        <ele>391.4</ele>
        <time>2021-04-14T13:15:37Z</time>
      </trkpt>
      <trkpt lat="47.83625" lon="5.2377">
        <ele>391.7</ele>
        <time>2021-04-14T13:15:58Z</time>
      </trkpt>
      <trkpt lat="47.8364" lon="5.23788">
        <ele>391.97</ele>
        <time>2021-04-14T13:16:16Z</time>
      </trkpt>
      <trkpt lat="47.83642" lon="5.23791">
        <ele>392.14</ele>
        <time>2021-04-14T13:16:20Z</time>
      </trkpt>
      <trkpt lat="47.83643" lon="5.23792">
        <ele>392.18</ele>
        <time>2021-04-14T13:16:21Z</time>
      </trkpt>
      <trkpt lat="47.83646" lon="5.23794">
        <ele>392.3</ele>
        <time>2021-04-14T13:16:23Z</time>
      </trkpt>
      <trkpt lat="47.83647" lon="5.23796">
        <ele>392.44</ele>
        <time>2021-04-14T13:16:25Z</time>
      </trkpt>
      <trkpt lat="47.83656" lon="5.2381">
        <ele>393.13</ele>
        <time>2021-04-14T13:16:37Z</time>
      </trkpt>
      <trkpt lat="47.83659" lon="5.23812">
        <ele>393.38</ele>
        <time>2021-04-14T13:16:40Z</time>
      </trkpt>
      <trkpt lat="47.8366" lon="5.23813">
        <ele>393.47</ele>
        <time>2021-04-14T13:16:41Z</time>
      </trkpt>
      <trkpt lat="47.83664" lon="5.23816">
        <ele>393.68</ele>
        <time>2021-04-14T13:16:44Z</time>
      </trkpt>
      <trkpt lat="47.83665" lon="5.23818">
        <ele>393.71</ele>
        <time>2021-04-14T13:16:45Z</time>
      </trkpt>
      <trkpt lat="47.8367" lon="5.23824">
        <ele>393.79</ele>
        <time>2021-04-14T13:16:51Z</time>
      </trkpt>
      <trkpt lat="47.83672" lon="5.23824">
        <ele>393.82</ele>
        <time>2021-04-14T13:16:52Z</time>
      </trkpt>
      <trkpt lat="47.83673" lon="5.23826">
        <ele>393.87</ele>
        <time>2021-04-14T13:16:53Z</time>
      </trkpt>
      <trkpt lat="47.83675" lon="5.23829">
        <ele>393.95</ele>
        <time>2021-04-14T13:16:55Z</time>
      </trkpt>
      <trkpt lat="47.83676" lon="5.23831">
        <ele>393.98</ele>
        <time>2021-04-14T13:16:56Z</time>
      </trkpt>
      <trkpt lat="47.83684" lon="5.23843">
        <ele>394.47</ele>
        <time>2021-04-14T13:17:08Z</time>
      </trkpt>
      <trkpt lat="47.83686" lon="5.23848">
        <ele>394.48</ele>
        <time>2021-04-14T13:17:11Z</time>
      </trkpt>
      <trkpt lat="47.83688" lon="5.23852">
        <ele>394.52</ele>
        <time>2021-04-14T13:17:13Z</time>
      </trkpt>
      <trkpt lat="47.8369" lon="5.23853">
        <ele>394.54</ele>
        <time>2021-04-14T13:17:14Z</time>
      </trkpt>
      <trkpt lat="47.83691" lon="5.23855">
        <ele>394.56</ele>
        <time>2021-04-14T13:17:15Z</time>
      </trkpt>
      <trkpt lat="47.83699" lon="5.23869">
        <ele>394.87</ele>
        <time>2021-04-14T13:17:26Z</time>
      </trkpt>
      <trkpt lat="47.837" lon="5.23871">
        <ele>394.91</ele>
        <time>2021-04-14T13:17:27Z</time>
      </trkpt>
      <trkpt lat="47.83708" lon="5.2391">
        <ele>396.12</ele>
        <time>2021-04-14T13:17:46Z</time>
      </trkpt>
      <trkpt lat="47.83709" lon="5.23913">
        <ele>396.22</ele>
        <time>2021-04-14T13:17:48Z</time>
      </trkpt>
      <trkpt lat="47.83709" lon="5.23915">
        <ele>396.26</ele>
        <time>2021-04-14T13:17:49Z</time>
      </trkpt>
      <trkpt lat="47.8371" lon="5.23917">
        <ele>396.29</ele>
        <time>2021-04-14T13:17:50Z</time>
      </trkpt>
      <trkpt lat="47.83711" lon="5.23919">
        <ele>396.31</ele>
        <time>2021-04-14T13:17:51Z</time>
      </trkpt>
      <trkpt lat="47.83712" lon="5.23921">
        <ele>396.31</ele>
        <time>2021-04-14T13:17:52Z</time>
      </trkpt>
      <trkpt lat="47.83719" lon="5.23942">
        <ele>395.82</ele>
        <time>2021-04-14T13:18:03Z</time>
      </trkpt>
      <trkpt lat="47.83722" lon="5.23954">
        <ele>395.56</ele>
        <time>2021-04-14T13:18:09Z</time>
      </trkpt>
      <trkpt lat="47.83724" lon="5.23959">
        <ele>395.42</ele>
        <time>2021-04-14T13:18:12Z</time>
      </trkpt>
      <trkpt lat="47.83725" lon="5.23962">
        <ele>395.39</ele>
        <time>2021-04-14T13:18:13Z</time>
      </trkpt>
      <trkpt lat="47.83733" lon="5.23978">
        <ele>395.02</ele>
        <time>2021-04-14T13:18:22Z</time>
      </trkpt>
      <trkpt lat="47.83733" lon="5.2398">
        <ele>395</ele>
        <time>2021-04-14T13:18:23Z</time>
      </trkpt>
      <trkpt lat="47.83735" lon="5.23995">
        <ele>394.95</ele>
        <time>2021-04-14T13:18:33Z</time>
      </trkpt>
      <trkpt lat="47.83734" lon="5.24015">
        <ele>394.61</ele>
        <time>2021-04-14T13:18:44Z</time>
      </trkpt>
      <trkpt lat="47.83734" lon="5.24018">
        <ele>394.59</ele>
        <time>2021-04-14T13:18:45Z</time>
      </trkpt>
      <trkpt lat="47.83733" lon="5.2402">
        <ele>394.57</ele>
        <time>2021-04-14T13:18:46Z</time>
      </trkpt>
      <trkpt lat="47.83734" lon="5.24023">
        <ele>394.56</ele>
        <time>2021-04-14T13:18:47Z</time>
      </trkpt>
      <trkpt lat="47.83734" lon="5.24025">
        <ele>394.56</ele>
        <time>2021-04-14T13:18:48Z</time>
      </trkpt>
      <trkpt lat="47.83734" lon="5.24027">
        <ele>394.56</ele>
        <time>2021-04-14T13:18:49Z</time>
      </trkpt>
      <trkpt lat="47.83735" lon="5.24052">
        <ele>394.66</ele>
        <time>2021-04-14T13:19:04Z</time>
      </trkpt>
      <trkpt lat="47.83737" lon="5.24059">
        <ele>394.59</ele>
        <time>2021-04-14T13:19:08Z</time>
      </trkpt>
      <trkpt lat="47.83739" lon="5.24066">
        <ele>394.55</ele>
        <time>2021-04-14T13:19:11Z</time>
      </trkpt>
      <trkpt lat="47.8375" lon="5.24094">
        <ele>393.73</ele>
        <time>2021-04-14T13:19:26Z</time>
      </trkpt>
      <trkpt lat="47.8375" lon="5.24096">
        <ele>393.68</ele>
        <time>2021-04-14T13:19:27Z</time>
      </trkpt>
      <trkpt lat="47.8375" lon="5.24098">
        <ele>393.63</ele>
        <time>2021-04-14T13:19:28Z</time>
      </trkpt>
      <trkpt lat="47.8375" lon="5.24101">
        <ele>393.56</ele>
        <time>2021-04-14T13:19:29Z</time>
      </trkpt>
      <trkpt lat="47.83751" lon="5.24104">
        <ele>393.5</ele>
        <time>2021-04-14T13:19:30Z</time>
      </trkpt>
      <trkpt lat="47.83751" lon="5.24106">
        <ele>393.44</ele>
        <time>2021-04-14T13:19:31Z</time>
      </trkpt>
      <trkpt lat="47.83751" lon="5.24109">
        <ele>393.39</ele>
        <time>2021-04-14T13:19:32Z</time>
      </trkpt>
      <trkpt lat="47.83751" lon="5.2411">
        <ele>393.32</ele>
        <time>2021-04-14T13:19:33Z</time>
      </trkpt>
      <trkpt lat="47.83751" lon="5.24123">
        <ele>392.68</ele>
        <time>2021-04-14T13:19:41Z</time>
      </trkpt>
      <trkpt lat="47.83754" lon="5.24143">
        <ele>392.46</ele>
        <time>2021-04-14T13:19:50Z</time>
      </trkpt>
      <trkpt lat="47.83755" lon="5.24145">
        <ele>392.43</ele>
        <time>2021-04-14T13:19:51Z</time>
      </trkpt>
      <trkpt lat="47.83755" lon="5.2415">
        <ele>392.41</ele>
        <time>2021-04-14T13:19:53Z</time>
      </trkpt>
      <trkpt lat="47.83757" lon="5.24165">
        <ele>392.3</ele>
        <time>2021-04-14T13:20:00Z</time>
      </trkpt>
      <trkpt lat="47.83757" lon="5.2417">
        <ele>392.16</ele>
        <time>2021-04-14T13:20:02Z</time>
      </trkpt>
      <trkpt lat="47.83757" lon="5.24175">
        <ele>392.05</ele>
        <time>2021-04-14T13:20:04Z</time>
      </trkpt>
      <trkpt lat="47.83757" lon="5.24178">
        <ele>391.98</ele>
        <time>2021-04-14T13:20:05Z</time>
      </trkpt>
      <trkpt lat="47.83761" lon="5.24201">
        <ele>391.52</ele>
        <time>2021-04-14T13:20:16Z</time>
      </trkpt>
      <trkpt lat="47.83761" lon="5.24207">
        <ele>391.39</ele>
        <time>2021-04-14T13:20:19Z</time>
      </trkpt>
      <trkpt lat="47.83762" lon="5.24209">
        <ele>391.31</ele>
        <time>2021-04-14T13:20:20Z</time>
      </trkpt>
      <trkpt lat="47.83762" lon="5.24214">
        <ele>390.97</ele>
        <time>2021-04-14T13:20:24Z</time>
      </trkpt>
      <trkpt lat="47.83762" lon="5.24216">
        <ele>390.89</ele>
        <time>2021-04-14T13:20:25Z</time>
      </trkpt>
      <trkpt lat="47.83762" lon="5.24218">
        <ele>390.8</ele>
        <time>2021-04-14T13:20:26Z</time>
      </trkpt>
      <trkpt lat="47.83764" lon="5.24229">
        <ele>391.07</ele>
        <time>2021-04-14T13:20:46Z</time>
      </trkpt>
      <trkpt lat="47.83765" lon="5.24237">
        <ele>390.86</ele>
        <time>2021-04-14T13:20:50Z</time>
      </trkpt>
      <trkpt lat="47.83767" lon="5.24255">
        <ele>390.11</ele>
        <time>2021-04-14T13:21:00Z</time>
      </trkpt>
      <trkpt lat="47.83771" lon="5.24267">
        <ele>389.95</ele>
        <time>2021-04-14T13:21:07Z</time>
      </trkpt>
      <trkpt lat="47.83772" lon="5.24269">
        <ele>389.92</ele>
        <time>2021-04-14T13:21:08Z</time>
      </trkpt>
      <trkpt lat="47.83772" lon="5.2427">
        <ele>389.88</ele>
        <time>2021-04-14T13:21:09Z</time>
      </trkpt>
      <trkpt lat="47.83777" lon="5.24286">
        <ele>389.28</ele>
        <time>2021-04-14T13:21:18Z</time>
      </trkpt>
      <trkpt lat="47.83778" lon="5.24293">
        <ele>389.15</ele>
        <time>2021-04-14T13:21:23Z</time>
      </trkpt>
      <trkpt lat="47.83782" lon="5.24301">
        <ele>389.11</ele>
        <time>2021-04-14T13:21:28Z</time>
      </trkpt>
      <trkpt lat="47.83782" lon="5.24303">
        <ele>389.13</ele>
        <time>2021-04-14T13:21:29Z</time>
      </trkpt>
      <trkpt lat="47.83786" lon="5.24314">
        <ele>389.27</ele>
        <time>2021-04-14T13:21:35Z</time>
      </trkpt>
      <trkpt lat="47.83786" lon="5.24317">
        <ele>389.3</ele>
        <time>2021-04-14T13:21:36Z</time>
      </trkpt>
      <trkpt lat="47.83786" lon="5.2432">
        <ele>389.32</ele>
        <time>2021-04-14T13:21:37Z</time>
      </trkpt>
      <trkpt lat="47.83787" lon="5.24324">
        <ele>389.33</ele>
        <time>2021-04-14T13:21:38Z</time>
      </trkpt>
      <trkpt lat="47.83788" lon="5.24326">
        <ele>389.34</ele>
        <time>2021-04-14T13:21:39Z</time>
      </trkpt>
      <trkpt lat="47.83789" lon="5.24337">
        <ele>389.39</ele>
        <time>2021-04-14T13:21:44Z</time>
      </trkpt>
      <trkpt lat="47.83791" lon="5.24341">
        <ele>389.5</ele>
        <time>2021-04-14T13:21:47Z</time>
      </trkpt>
      <trkpt lat="47.83792" lon="5.24344">
        <ele>389.5</ele>
        <time>2021-04-14T13:21:48Z</time>
      </trkpt>
      <trkpt lat="47.83792" lon="5.24346">
        <ele>389.51</ele>
        <time>2021-04-14T13:21:49Z</time>
      </trkpt>
      <trkpt lat="47.83792" lon="5.24348">
        <ele>389.53</ele>
        <time>2021-04-14T13:21:50Z</time>
      </trkpt>
      <trkpt lat="47.83795" lon="5.24355">
        <ele>389.51</ele>
        <time>2021-04-14T13:21:54Z</time>
      </trkpt>
      <trkpt lat="47.83799" lon="5.24368">
        <ele>389.6</ele>
        <time>2021-04-14T13:22:02Z</time>
      </trkpt>
      <trkpt lat="47.838" lon="5.2437">
        <ele>389.59</ele>
        <time>2021-04-14T13:22:03Z</time>
      </trkpt>
      <trkpt lat="47.83801" lon="5.24381">
        <ele>389.69</ele>
        <time>2021-04-14T13:22:09Z</time>
      </trkpt>
      <trkpt lat="47.83801" lon="5.24382">
        <ele>389.73</ele>
        <time>2021-04-14T13:22:10Z</time>
      </trkpt>
      <trkpt lat="47.83802" lon="5.24389">
        <ele>389.79</ele>
        <time>2021-04-14T13:22:13Z</time>
      </trkpt>
      <trkpt lat="47.83805" lon="5.24398">
        <ele>389.95</ele>
        <time>2021-04-14T13:22:20Z</time>
      </trkpt>
      <trkpt lat="47.83806" lon="5.244">
        <ele>389.95</ele>
        <time>2021-04-14T13:22:21Z</time>
      </trkpt>
      <trkpt lat="47.83808" lon="5.24411">
        <ele>390.01</ele>
        <time>2021-04-14T13:22:27Z</time>
      </trkpt>
      <trkpt lat="47.83809" lon="5.24416">
        <ele>390.03</ele>
        <time>2021-04-14T13:22:30Z</time>
      </trkpt>
      <trkpt lat="47.8381" lon="5.24426">
        <ele>390.22</ele>
        <time>2021-04-14T13:22:35Z</time>
      </trkpt>
      <trkpt lat="47.83811" lon="5.24427">
        <ele>390.3</ele>
        <time>2021-04-14T13:22:36Z</time>
      </trkpt>
      <trkpt lat="47.83812" lon="5.24433">
        <ele>390.55</ele>
        <time>2021-04-14T13:22:39Z</time>
      </trkpt>
      <trkpt lat="47.83815" lon="5.24445">
        <ele>390.96</ele>
        <time>2021-04-14T13:22:46Z</time>
      </trkpt>
      <trkpt lat="47.83815" lon="5.24447">
        <ele>391</ele>
        <time>2021-04-14T13:22:47Z</time>
      </trkpt>
      <trkpt lat="47.83816" lon="5.24451">
        <ele>391.17</ele>
        <time>2021-04-14T13:22:50Z</time>
      </trkpt>
      <trkpt lat="47.83817" lon="5.24456">
        <ele>391.41</ele>
        <time>2021-04-14T13:22:53Z</time>
      </trkpt>
      <trkpt lat="47.83819" lon="5.24472">
        <ele>392.4</ele>
        <time>2021-04-14T13:23:02Z</time>
      </trkpt>
      <trkpt lat="47.83819" lon="5.24484">
        <ele>392.78</ele>
        <time>2021-04-14T13:23:07Z</time>
      </trkpt>
      <trkpt lat="47.83821" lon="5.24499">
        <ele>393.12</ele>
        <time>2021-04-14T13:23:14Z</time>
      </trkpt>
      <trkpt lat="47.83822" lon="5.24501">
        <ele>393.18</ele>
        <time>2021-04-14T13:23:15Z</time>
      </trkpt>
      <trkpt lat="47.83823" lon="5.24504">
        <ele>393.22</ele>
        <time>2021-04-14T13:23:16Z</time>
      </trkpt>
      <trkpt lat="47.83823" lon="5.24506">
        <ele>393.27</ele>
        <time>2021-04-14T13:23:17Z</time>
      </trkpt>
      <trkpt lat="47.83824" lon="5.24508">
        <ele>393.35</ele>
        <time>2021-04-14T13:23:18Z</time>
      </trkpt>
      <trkpt lat="47.83825" lon="5.2451">
        <ele>393.43</ele>
        <time>2021-04-14T13:23:19Z</time>
      </trkpt>
      <trkpt lat="47.83825" lon="5.24512">
        <ele>393.51</ele>
        <time>2021-04-14T13:23:20Z</time>
      </trkpt>
      <trkpt lat="47.83827" lon="5.24516">
        <ele>393.68</ele>
        <time>2021-04-14T13:23:22Z</time>
      </trkpt>
      <trkpt lat="47.83826" lon="5.24519">
        <ele>393.77</ele>
        <time>2021-04-14T13:23:23Z</time>
      </trkpt>
      <trkpt lat="47.83827" lon="5.24521">
        <ele>393.99</ele>
        <time>2021-04-14T13:23:24Z</time>
      </trkpt>
      <trkpt lat="47.83827" lon="5.24522">
        <ele>394.1</ele>
        <time>2021-04-14T13:23:25Z</time>
      </trkpt>
      <trkpt lat="47.83831" lon="5.24529">
        <ele>394.51</ele>
        <time>2021-04-14T13:23:31Z</time>
      </trkpt>
      <trkpt lat="47.83833" lon="5.24535">
        <ele>394.69</ele>
        <time>2021-04-14T13:23:34Z</time>
      </trkpt>
      <trkpt lat="47.83834" lon="5.24537">
        <ele>394.8</ele>
        <time>2021-04-14T13:23:35Z</time>
      </trkpt>
      <trkpt lat="47.8384" lon="5.24552">
        <ele>395.34</ele>
        <time>2021-04-14T13:23:42Z</time>
      </trkpt>
      <trkpt lat="47.83846" lon="5.24569">
        <ele>395.64</ele>
        <time>2021-04-14T13:23:52Z</time>
      </trkpt>
      <trkpt lat="47.83848" lon="5.24574">
        <ele>395.68</ele>
        <time>2021-04-14T13:23:55Z</time>
      </trkpt>
      <trkpt lat="47.83857" lon="5.24593">
        <ele>395.61</ele>
        <time>2021-04-14T13:24:07Z</time>
      </trkpt>
      <trkpt lat="47.8386" lon="5.24602">
        <ele>395.47</ele>
        <time>2021-04-14T13:24:12Z</time>
      </trkpt>
      <trkpt lat="47.83861" lon="5.24605">
        <ele>395.45</ele>
        <time>2021-04-14T13:24:13Z</time>
      </trkpt>
      <trkpt lat="47.83862" lon="5.24609">
        <ele>395.48</ele>
        <time>2021-04-14T13:24:15Z</time>
      </trkpt>
      <trkpt lat="47.83863" lon="5.2461">
        <ele>395.49</ele>
        <time>2021-04-14T13:24:16Z</time>
      </trkpt>
      <trkpt lat="47.83865" lon="5.24617">
        <ele>395.64</ele>
        <time>2021-04-14T13:24:20Z</time>
      </trkpt>
      <trkpt lat="47.83866" lon="5.24619">
        <ele>395.64</ele>
        <time>2021-04-14T13:24:21Z</time>
      </trkpt>
      <trkpt lat="47.83867" lon="5.24621">
        <ele>395.64</ele>
        <time>2021-04-14T13:24:22Z</time>
      </trkpt>
      <trkpt lat="47.83868" lon="5.24624">
        <ele>395.61</ele>
        <time>2021-04-14T13:24:23Z</time>
      </trkpt>
      <trkpt lat="47.83868" lon="5.24626">
        <ele>395.56</ele>
        <time>2021-04-14T13:24:24Z</time>
      </trkpt>
      <trkpt lat="47.8387" lon="5.2463">
        <ele>395.51</ele>
        <time>2021-04-14T13:24:26Z</time>
      </trkpt>
      <trkpt lat="47.83872" lon="5.24635">
        <ele>395.49</ele>
        <time>2021-04-14T13:24:29Z</time>
      </trkpt>
      <trkpt lat="47.83872" lon="5.24637">
        <ele>395.49</ele>
        <time>2021-04-14T13:24:30Z</time>
      </trkpt>
      <trkpt lat="47.83874" lon="5.2464">
        <ele>395.47</ele>
        <time>2021-04-14T13:24:33Z</time>
      </trkpt>
      <trkpt lat="47.83878" lon="5.24654">
        <ele>395.35</ele>
        <time>2021-04-14T13:24:41Z</time>
      </trkpt>
      <trkpt lat="47.83879" lon="5.24654">
        <ele>395.31</ele>
        <time>2021-04-14T13:24:42Z</time>
      </trkpt>
      <trkpt lat="47.8388" lon="5.24656">
        <ele>395.25</ele>
        <time>2021-04-14T13:24:43Z</time>
      </trkpt>
      <trkpt lat="47.83881" lon="5.24659">
        <ele>395.03</ele>
        <time>2021-04-14T13:24:45Z</time>
      </trkpt>
      <trkpt lat="47.83883" lon="5.24663">
        <ele>394.95</ele>
        <time>2021-04-14T13:24:46Z</time>
      </trkpt>
      <trkpt lat="47.83883" lon="5.24666">
        <ele>394.89</ele>
        <time>2021-04-14T13:24:47Z</time>
      </trkpt>
      <trkpt lat="47.83884" lon="5.24669">
        <ele>394.83</ele>
        <time>2021-04-14T13:24:48Z</time>
      </trkpt>
      <trkpt lat="47.83885" lon="5.24672">
        <ele>394.79</ele>
        <time>2021-04-14T13:24:49Z</time>
      </trkpt>
      <trkpt lat="47.83885" lon="5.24674">
        <ele>394.76</ele>
        <time>2021-04-14T13:24:50Z</time>
      </trkpt>
      <trkpt lat="47.83886" lon="5.24678">
        <ele>394.66</ele>
        <time>2021-04-14T13:24:54Z</time>
      </trkpt>
      <trkpt lat="47.83887" lon="5.24681">
        <ele>394.61</ele>
        <time>2021-04-14T13:24:55Z</time>
      </trkpt>
      <trkpt lat="47.83887" lon="5.24683">
        <ele>394.56</ele>
        <time>2021-04-14T13:24:56Z</time>
      </trkpt>
      <trkpt lat="47.83887" lon="5.24686">
        <ele>394.5</ele>
        <time>2021-04-14T13:24:57Z</time>
      </trkpt>
      <trkpt lat="47.83887" lon="5.24687">
        <ele>394.45</ele>
        <time>2021-04-14T13:24:58Z</time>
      </trkpt>
      <trkpt lat="47.83887" lon="5.24689">
        <ele>394.44</ele>
        <time>2021-04-14T13:24:59Z</time>
      </trkpt>
      <trkpt lat="47.83887" lon="5.24691">
        <ele>394.44</ele>
        <time>2021-04-14T13:25:00Z</time>
      </trkpt>
      <trkpt lat="47.83887" lon="5.24693">
        <ele>394.46</ele>
        <time>2021-04-14T13:25:01Z</time>
      </trkpt>
      <trkpt lat="47.83886" lon="5.24696">
        <ele>394.46</ele>
        <time>2021-04-14T13:25:03Z</time>
      </trkpt>
      <trkpt lat="47.83886" lon="5.247">
        <ele>394.48</ele>
        <time>2021-04-14T13:25:05Z</time>
      </trkpt>
      <trkpt lat="47.83884" lon="5.24704">
        <ele>394.46</ele>
        <time>2021-04-14T13:25:08Z</time>
      </trkpt>
      <trkpt lat="47.83883" lon="5.24705">
        <ele>394.41</ele>
        <time>2021-04-14T13:25:09Z</time>
      </trkpt>
      <trkpt lat="47.83882" lon="5.24707">
        <ele>394.33</ele>
        <time>2021-04-14T13:25:10Z</time>
      </trkpt>
      <trkpt lat="47.83882" lon="5.24709">
        <ele>394.28</ele>
        <time>2021-04-14T13:25:11Z</time>
      </trkpt>
      <trkpt lat="47.83881" lon="5.2471">
        <ele>394.24</ele>
        <time>2021-04-14T13:25:12Z</time>
      </trkpt>
      <trkpt lat="47.8388" lon="5.24712">
        <ele>394.22</ele>
        <time>2021-04-14T13:25:13Z</time>
      </trkpt>
      <trkpt lat="47.83873" lon="5.24733">
        <ele>394.37</ele>
        <time>2021-04-14T13:25:25Z</time>
      </trkpt>
      <trkpt lat="47.83863" lon="5.24752">
        <ele>393.86</ele>
        <time>2021-04-14T13:25:39Z</time>
      </trkpt>
      <trkpt lat="47.83853" lon="5.24761">
        <ele>393.75</ele>
        <time>2021-04-14T13:25:49Z</time>
      </trkpt>
      <trkpt lat="47.83848" lon="5.24768">
        <ele>393.76</ele>
        <time>2021-04-14T13:25:53Z</time>
      </trkpt>
      <trkpt lat="47.83845" lon="5.24772">
        <ele>393.74</ele>
        <time>2021-04-14T13:25:56Z</time>
      </trkpt>
      <trkpt lat="47.83844" lon="5.24773">
        <ele>393.68</ele>
        <time>2021-04-14T13:25:57Z</time>
      </trkpt>
      <trkpt lat="47.83844" lon="5.24775">
        <ele>393.6</ele>
        <time>2021-04-14T13:25:58Z</time>
      </trkpt>
      <trkpt lat="47.83843" lon="5.24777">
        <ele>393.57</ele>
        <time>2021-04-14T13:25:59Z</time>
      </trkpt>
      <trkpt lat="47.83842" lon="5.24779">
        <ele>393.54</ele>
        <time>2021-04-14T13:26:00Z</time>
      </trkpt>
      <trkpt lat="47.83841" lon="5.24781">
        <ele>393.49</ele>
        <time>2021-04-14T13:26:01Z</time>
      </trkpt>
      <trkpt lat="47.83837" lon="5.24785">
        <ele>393.34</ele>
        <time>2021-04-14T13:26:04Z</time>
      </trkpt>
      <trkpt lat="47.83836" lon="5.24787">
        <ele>393.28</ele>
        <time>2021-04-14T13:26:05Z</time>
      </trkpt>
      <trkpt lat="47.83835" lon="5.24787">
        <ele>393.19</ele>
        <time>2021-04-14T13:26:06Z</time>
      </trkpt>
      <trkpt lat="47.83819" lon="5.24798">
        <ele>390.85</ele>
        <time>2021-04-14T13:26:21Z</time>
      </trkpt>
      <trkpt lat="47.83816" lon="5.24798">
        <ele>390.88</ele>
        <time>2021-04-14T13:26:23Z</time>
      </trkpt>
      <trkpt lat="47.83803" lon="5.24798">
        <ele>391.1</ele>
        <time>2021-04-14T13:26:33Z</time>
      </trkpt>
      <trkpt lat="47.83775" lon="5.24794">
        <ele>392.46</ele>
        <time>2021-04-14T13:26:53Z</time>
      </trkpt>
      <trkpt lat="47.83766" lon="5.24792">
        <ele>392.41</ele>
        <time>2021-04-14T13:27:01Z</time>
      </trkpt>
      <trkpt lat="47.83765" lon="5.24793">
        <ele>392.38</ele>
        <time>2021-04-14T13:27:02Z</time>
      </trkpt>
      <trkpt lat="47.83758" lon="5.24798">
        <ele>392.37</ele>
        <time>2021-04-14T13:27:08Z</time>
      </trkpt>
      <trkpt lat="47.83757" lon="5.24799">
        <ele>392.4</ele>
        <time>2021-04-14T13:27:09Z</time>
      </trkpt>
      <trkpt lat="47.83755" lon="5.248">
        <ele>392.42</ele>
        <time>2021-04-14T13:27:10Z</time>
      </trkpt>
      <trkpt lat="47.83747" lon="5.24806">
        <ele>392.27</ele>
        <time>2021-04-14T13:27:19Z</time>
      </trkpt>
      <trkpt lat="47.83745" lon="5.24808">
        <ele>392.26</ele>
        <time>2021-04-14T13:27:22Z</time>
      </trkpt>
      <trkpt lat="47.83739" lon="5.24807">
        <ele>392.46</ele>
        <time>2021-04-14T13:27:29Z</time>
      </trkpt>
      <trkpt lat="47.83728" lon="5.24812">
        <ele>392.75</ele>
        <time>2021-04-14T13:27:36Z</time>
      </trkpt>
      <trkpt lat="47.83704" lon="5.24831">
        <ele>393.72</ele>
        <time>2021-04-14T13:27:55Z</time>
      </trkpt>
      <trkpt lat="47.83681" lon="5.24836">
        <ele>395.25</ele>
        <time>2021-04-14T13:28:14Z</time>
      </trkpt>
      <trkpt lat="47.83659" lon="5.24845">
        <ele>396.12</ele>
        <time>2021-04-14T13:28:36Z</time>
      </trkpt>
      <trkpt lat="47.83635" lon="5.24845">
        <ele>397.51</ele>
        <time>2021-04-14T13:28:56Z</time>
      </trkpt>
      <trkpt lat="47.83615" lon="5.24859">
        <ele>397.79</ele>
        <time>2021-04-14T13:29:17Z</time>
      </trkpt>
      <trkpt lat="47.83599" lon="5.2487">
        <ele>397.31</ele>
        <time>2021-04-14T13:29:30Z</time>
      </trkpt>
      <trkpt lat="47.83584" lon="5.24881">
        <ele>397.04</ele>
        <time>2021-04-14T13:29:42Z</time>
      </trkpt>
      <trkpt lat="47.83567" lon="5.24898">
        <ele>397.28</ele>
        <time>2021-04-14T13:29:58Z</time>
      </trkpt>
      <trkpt lat="47.83566" lon="5.24899">
        <ele>397.24</ele>
        <time>2021-04-14T13:29:59Z</time>
      </trkpt>
      <trkpt lat="47.83565" lon="5.249">
        <ele>397.2</ele>
        <time>2021-04-14T13:30:00Z</time>
      </trkpt>
      <trkpt lat="47.83549" lon="5.24913">
        <ele>396.64</ele>
        <time>2021-04-14T13:30:17Z</time>
      </trkpt>
      <trkpt lat="47.83547" lon="5.24915">
        <ele>396.37</ele>
        <time>2021-04-14T13:30:19Z</time>
      </trkpt>
      <trkpt lat="47.83541" lon="5.24921">
        <ele>395.98</ele>
        <time>2021-04-14T13:30:23Z</time>
      </trkpt>
      <trkpt lat="47.8353" lon="5.24934">
        <ele>395.17</ele>
        <time>2021-04-14T13:30:34Z</time>
      </trkpt>
      <trkpt lat="47.83523" lon="5.24941">
        <ele>394.94</ele>
        <time>2021-04-14T13:30:41Z</time>
      </trkpt>
      <trkpt lat="47.83507" lon="5.24953">
        <ele>393.71</ele>
        <time>2021-04-14T13:30:53Z</time>
      </trkpt>
      <trkpt lat="47.83505" lon="5.24955">
        <ele>393.71</ele>
        <time>2021-04-14T13:30:55Z</time>
      </trkpt>
      <trkpt lat="47.83492" lon="5.24966">
        <ele>394.14</ele>
        <time>2021-04-14T13:31:07Z</time>
      </trkpt>
      <trkpt lat="47.83469" lon="5.24982">
        <ele>395.51</ele>
        <time>2021-04-14T13:31:24Z</time>
      </trkpt>
      <trkpt lat="47.8346" lon="5.24988">
        <ele>396.01</ele>
        <time>2021-04-14T13:31:30Z</time>
      </trkpt>
      <trkpt lat="47.83456" lon="5.24991">
        <ele>396.33</ele>
        <time>2021-04-14T13:31:33Z</time>
      </trkpt>
      <trkpt lat="47.83453" lon="5.24992">
        <ele>396.78</ele>
        <time>2021-04-14T13:31:36Z</time>
      </trkpt>
      <trkpt lat="47.83438" lon="5.24993">
        <ele>398.77</ele>
        <time>2021-04-14T13:31:49Z</time>
      </trkpt>
      <trkpt lat="47.83419" lon="5.24992">
        <ele>401.88</ele>
        <time>2021-04-14T13:32:05Z</time>
      </trkpt>
      <trkpt lat="47.83407" lon="5.24993">
        <ele>402.93</ele>
        <time>2021-04-14T13:32:13Z</time>
      </trkpt>
      <trkpt lat="47.83403" lon="5.24994">
        <ele>403.12</ele>
        <time>2021-04-14T13:32:16Z</time>
      </trkpt>
      <trkpt lat="47.83393" lon="5.24997">
        <ele>403.17</ele>
        <time>2021-04-14T13:32:25Z</time>
      </trkpt>
      <trkpt lat="47.83379" lon="5.24998">
        <ele>403.37</ele>
        <time>2021-04-14T13:32:38Z</time>
      </trkpt>
      <trkpt lat="47.83373" lon="5.24996">
        <ele>403.67</ele>
        <time>2021-04-14T13:32:43Z</time>
      </trkpt>
      <trkpt lat="47.83361" lon="5.24991">
        <ele>405.23</ele>
        <time>2021-04-14T13:32:54Z</time>
      </trkpt>
      <trkpt lat="47.83336" lon="5.24988">
        <ele>407.44</ele>
        <time>2021-04-14T13:33:12Z</time>
      </trkpt>
      <trkpt lat="47.83333" lon="5.24988">
        <ele>407.72</ele>
        <time>2021-04-14T13:33:14Z</time>
      </trkpt>
      <trkpt lat="47.83325" lon="5.24989">
        <ele>408.61</ele>
        <time>2021-04-14T13:33:21Z</time>
      </trkpt>
      <trkpt lat="47.83319" lon="5.24989">
        <ele>409.02</ele>
        <time>2021-04-14T13:33:27Z</time>
      </trkpt>
      <trkpt lat="47.83295" lon="5.24988">
        <ele>409.03</ele>
        <time>2021-04-14T13:33:44Z</time>
      </trkpt>
      <trkpt lat="47.83288" lon="5.2499">
        <ele>409.38</ele>
        <time>2021-04-14T13:33:49Z</time>
      </trkpt>
      <trkpt lat="47.83279" lon="5.24989">
        <ele>410.01</ele>
        <time>2021-04-14T13:33:56Z</time>
      </trkpt>
      <trkpt lat="47.83268" lon="5.24989">
        <ele>410.85</ele>
        <time>2021-04-14T13:34:04Z</time>
      </trkpt>
      <trkpt lat="47.8326" lon="5.24991">
        <ele>411.44</ele>
        <time>2021-04-14T13:34:10Z</time>
      </trkpt>
      <trkpt lat="47.83249" lon="5.24997">
        <ele>411.21</ele>
        <time>2021-04-14T13:34:20Z</time>
      </trkpt>
      <trkpt lat="47.83237" lon="5.25003">
        <ele>411.09</ele>
        <time>2021-04-14T13:34:31Z</time>
      </trkpt>
      <trkpt lat="47.83224" lon="5.25008">
        <ele>410.62</ele>
        <time>2021-04-14T13:34:42Z</time>
      </trkpt>
      <trkpt lat="47.83208" lon="5.25018">
        <ele>409.84</ele>
        <time>2021-04-14T13:34:56Z</time>
      </trkpt>
      <trkpt lat="47.83204" lon="5.25019">
        <ele>409.73</ele>
        <time>2021-04-14T13:35:00Z</time>
      </trkpt>
      <trkpt lat="47.83199" lon="5.25019">
        <ele>409.71</ele>
        <time>2021-04-14T13:35:04Z</time>
      </trkpt>
      <trkpt lat="47.83175" lon="5.25026">
        <ele>409.35</ele>
        <time>2021-04-14T13:35:21Z</time>
      </trkpt>
      <trkpt lat="47.83167" lon="5.25027">
        <ele>409.53</ele>
        <time>2021-04-14T13:35:26Z</time>
      </trkpt>
      <trkpt lat="47.83164" lon="5.25028">
        <ele>409.58</ele>
        <time>2021-04-14T13:35:29Z</time>
      </trkpt>
      <trkpt lat="47.83157" lon="5.2503">
        <ele>409.36</ele>
        <time>2021-04-14T13:35:35Z</time>
      </trkpt>
      <trkpt lat="47.83147" lon="5.25034">
        <ele>408.69</ele>
        <time>2021-04-14T13:35:45Z</time>
      </trkpt>
      <trkpt lat="47.83143" lon="5.25036">
        <ele>408.45</ele>
        <time>2021-04-14T13:35:48Z</time>
      </trkpt>
      <trkpt lat="47.83133" lon="5.25044">
        <ele>407.82</ele>
        <time>2021-04-14T13:35:56Z</time>
      </trkpt>
      <trkpt lat="47.83128" lon="5.25048">
        <ele>407.07</ele>
        <time>2021-04-14T13:36:01Z</time>
      </trkpt>
      <trkpt lat="47.83104" lon="5.25077">
        <ele>404.72</ele>
        <time>2021-04-14T13:36:23Z</time>
      </trkpt>
      <trkpt lat="47.8309" lon="5.25089">
        <ele>403.79</ele>
        <time>2021-04-14T13:36:34Z</time>
      </trkpt>
      <trkpt lat="47.8308" lon="5.25097">
        <ele>403.55</ele>
        <time>2021-04-14T13:36:42Z</time>
      </trkpt>
      <trkpt lat="47.8307" lon="5.25101">
        <ele>403.18</ele>
        <time>2021-04-14T13:36:52Z</time>
      </trkpt>
      <trkpt lat="47.83068" lon="5.25103">
        <ele>403.45</ele>
        <time>2021-04-14T13:36:55Z</time>
      </trkpt>
      <trkpt lat="47.83064" lon="5.25108">
        <ele>403.73</ele>
        <time>2021-04-14T13:37:00Z</time>
      </trkpt>
      <trkpt lat="47.83058" lon="5.25111">
        <ele>404.09</ele>
        <time>2021-04-14T13:37:06Z</time>
      </trkpt>
      <trkpt lat="47.83041" lon="5.25123">
        <ele>403.78</ele>
        <time>2021-04-14T13:37:19Z</time>
      </trkpt>
      <trkpt lat="47.83038" lon="5.25126">
        <ele>403.7</ele>
        <time>2021-04-14T13:37:22Z</time>
      </trkpt>
      <trkpt lat="47.83036" lon="5.25134">
        <ele>403.43</ele>
        <time>2021-04-14T13:37:27Z</time>
      </trkpt>
      <trkpt lat="47.8304" lon="5.2517">
        <ele>402.57</ele>
        <time>2021-04-14T13:37:41Z</time>
      </trkpt>
      <trkpt lat="47.83041" lon="5.25177">
        <ele>401.71</ele>
        <time>2021-04-14T13:37:47Z</time>
      </trkpt>
      <trkpt lat="47.83043" lon="5.2519">
        <ele>400.18</ele>
        <time>2021-04-14T13:37:59Z</time>
      </trkpt>
      <trkpt lat="47.83044" lon="5.25192">
        <ele>399.96</ele>
        <time>2021-04-14T13:38:00Z</time>
      </trkpt>
      <trkpt lat="47.83045" lon="5.25228">
        <ele>398</ele>
        <time>2021-04-14T13:38:24Z</time>
      </trkpt>
      <trkpt lat="47.83044" lon="5.25228">
        <ele>398.01</ele>
        <time>2021-04-14T13:38:42Z</time>
      </trkpt>
      <trkpt lat="47.83047" lon="5.25248">
        <ele>397.39</ele>
        <time>2021-04-14T13:39:03Z</time>
      </trkpt>
      <trkpt lat="47.83049" lon="5.25264">
        <ele>396.61</ele>
        <time>2021-04-14T13:39:13Z</time>
      </trkpt>
      <trkpt lat="47.83051" lon="5.25275">
        <ele>395.72</ele>
        <time>2021-04-14T13:39:22Z</time>
      </trkpt>
      <trkpt lat="47.83051" lon="5.25289">
        <ele>394.36</ele>
        <time>2021-04-14T13:39:36Z</time>
      </trkpt>
      <trkpt lat="47.83049" lon="5.25298">
        <ele>394.1</ele>
        <time>2021-04-14T13:39:43Z</time>
      </trkpt>
      <trkpt lat="47.83047" lon="5.25314">
        <ele>394.39</ele>
        <time>2021-04-14T13:40:00Z</time>
      </trkpt>
      <trkpt lat="47.83051" lon="5.2533">
        <ele>394.04</ele>
        <time>2021-04-14T13:40:20Z</time>
      </trkpt>
      <trkpt lat="47.83067" lon="5.25349">
        <ele>392.87</ele>
        <time>2021-04-14T13:40:42Z</time>
      </trkpt>
      <trkpt lat="47.83068" lon="5.2536">
        <ele>392.34</ele>
        <time>2021-04-14T13:40:53Z</time>
      </trkpt>
      <trkpt lat="47.83069" lon="5.25367">
        <ele>392.22</ele>
        <time>2021-04-14T13:40:57Z</time>
      </trkpt>
      <trkpt lat="47.83069" lon="5.25373">
        <ele>391.88</ele>
        <time>2021-04-14T13:41:03Z</time>
      </trkpt>
      <trkpt lat="47.8307" lon="5.2538">
        <ele>391.74</ele>
        <time>2021-04-14T13:41:07Z</time>
      </trkpt>
      <trkpt lat="47.83084" lon="5.25396">
        <ele>390.05</ele>
        <time>2021-04-14T13:41:28Z</time>
      </trkpt>
      <trkpt lat="47.83094" lon="5.25413">
        <ele>391.22</ele>
        <time>2021-04-14T13:41:47Z</time>
      </trkpt>
      <trkpt lat="47.83093" lon="5.25419">
        <ele>392.04</ele>
        <time>2021-04-14T13:41:59Z</time>
      </trkpt>
      <trkpt lat="47.83091" lon="5.25429">
        <ele>392</ele>
        <time>2021-04-14T13:42:25Z</time>
      </trkpt>
      <trkpt lat="47.83085" lon="5.25436">
        <ele>392.15</ele>
        <time>2021-04-14T13:42:37Z</time>
      </trkpt>
      <trkpt lat="47.83084" lon="5.25439">
        <ele>392.15</ele>
        <time>2021-04-14T13:42:39Z</time>
      </trkpt>
      <trkpt lat="47.83077" lon="5.25462">
        <ele>392.78</ele>
        <time>2021-04-14T13:42:55Z</time>
      </trkpt>
      <trkpt lat="47.83075" lon="5.25464">
        <ele>392.95</ele>
        <time>2021-04-14T13:42:57Z</time>
      </trkpt>
      <trkpt lat="47.83074" lon="5.25467">
        <ele>393.09</ele>
        <time>2021-04-14T13:42:59Z</time>
      </trkpt>
      <trkpt lat="47.83073" lon="5.25472">
        <ele>393.28</ele>
        <time>2021-04-14T13:43:02Z</time>
      </trkpt>
      <trkpt lat="47.83068" lon="5.25485">
        <ele>393.53</ele>
        <time>2021-04-14T13:43:14Z</time>
      </trkpt>
      <trkpt lat="47.83066" lon="5.25488">
        <ele>393.74</ele>
        <time>2021-04-14T13:43:17Z</time>
      </trkpt>
      <trkpt lat="47.83055" lon="5.25502">
        <ele>394.7</ele>
        <time>2021-04-14T13:43:36Z</time>
      </trkpt>
      <trkpt lat="47.83051" lon="5.25506">
        <ele>394.52</ele>
        <time>2021-04-14T13:44:05Z</time>
      </trkpt>
      <trkpt lat="47.83043" lon="5.25503">
        <ele>394.3</ele>
        <time>2021-04-14T13:44:24Z</time>
      </trkpt>
      <trkpt lat="47.83039" lon="5.255">
        <ele>394.29</ele>
        <time>2021-04-14T13:44:29Z</time>
      </trkpt>
      <trkpt lat="47.83033" lon="5.25495">
        <ele>394.1</ele>
        <time>2021-04-14T13:44:36Z</time>
      </trkpt>
      <trkpt lat="47.83029" lon="5.25493">
        <ele>394.11</ele>
        <time>2021-04-14T13:44:40Z</time>
      </trkpt>
      <trkpt lat="47.83024" lon="5.2549">
        <ele>394.19</ele>
        <time>2021-04-14T13:44:44Z</time>
      </trkpt>
      <trkpt lat="47.83003" lon="5.25485">
        <ele>393.59</ele>
        <time>2021-04-14T13:45:03Z</time>
      </trkpt>
      <trkpt lat="47.82998" lon="5.25484">
        <ele>394.23</ele>
        <time>2021-04-14T13:45:14Z</time>
      </trkpt>
      <trkpt lat="47.82992" lon="5.25486">
        <ele>394.34</ele>
        <time>2021-04-14T13:45:21Z</time>
      </trkpt>
      <trkpt lat="47.8298" lon="5.25491">
        <ele>394.51</ele>
        <time>2021-04-14T13:45:38Z</time>
      </trkpt>
      <trkpt lat="47.82971" lon="5.25496">
        <ele>394.08</ele>
        <time>2021-04-14T13:45:58Z</time>
      </trkpt>
      <trkpt lat="47.82966" lon="5.25497">
        <ele>394.59</ele>
        <time>2021-04-14T13:46:26Z</time>
      </trkpt>
      <trkpt lat="47.82965" lon="5.25497">
        <ele>394.52</ele>
        <time>2021-04-14T13:46:50Z</time>
      </trkpt>
      <trkpt lat="47.82966" lon="5.25497">
        <ele>394.44</ele>
        <time>2021-04-14T13:46:53Z</time>
      </trkpt>
    </trkseg>
  </trk>
</gpx>